Time,TemperatureF,DewpointF,PressureIn,WindDirection,WindDirectionDegrees,WindSpeedMPH,WindSpeedGustMPH,Humidity,HourlyPrecipIn,Conditions,Clouds,dailyrainin,SoftwareType,DateUTC
2013-05-31 00:00:00,76.5,76.5,30.04,SSW,204,0.7,30.1,100,0.07,,SKC,0.07,VWS V14.01,2013-05-31 04:00:00,
2013-05-31 00:03:00,76.5,76.5,30.04,SSW,208,7.4,30.1,100,0.07,,SKC,0.07,VWS V14.01,2013-05-31 04:03:00,
2013-05-31 00:04:00,76.4,76.4,30.04,South,181,9.3,30.1,100,0.07,,SKC,0.07,VWS V14.01,2013-05-31 04:04:00,
2013-05-31 00:05:00,76.5,76.4,30.04,North,359,5.5,30.1,100,0.07,,SKC,0.07,VWS V14.01,2013-05-31 04:05:00,
2013-05-31 00:06:00,76.5,76.5,30.04,North,359,14.0,30.1,100,0.07,,SKC,0.07,VWS V14.01,2013-05-31 04:06:00,
2013-05-31 00:08:00,76.6,76.6,30.04,North,359,2.7,30.1,100,0.07,,SKC,0.07,VWS V14.01,2013-05-31 04:08:00,
2013-05-31 00:09:00,76.6,76.6,30.04,SSE,165,4.9,30.1,100,0.07,,SKC,0.07,VWS V14.01,2013-05-31 04:09:00,
2013-05-31 00:10:00,76.5,76.5,30.04,SSE,155,5.7,30.1,100,0.07,,SKC,0.07,VWS V14.01,2013-05-31 04:10:00,
2013-05-31 00:11:00,76.6,76.6,30.03,South,174,7.9,30.1,100,0.07,,SKC,0.07,VWS V14.01,2013-05-31 04:11:00,
2013-05-31 00:14:00,76.5,76.5,30.03,South,173,2.7,30.1,100,0.07,,SKC,0.07,VWS V14.01,2013-05-31 04:14:00,
2013-05-31 00:15:00,76.4,76.4,30.03,South,174,6.4,30.1,100,0.07,,SKC,0.07,VWS V14.01,2013-05-31 04:15:00,
2013-05-31 00:16:00,76.4,76.4,30.03,SSE,159,12.5,30.1,100,0.07,,SKC,0.07,VWS V14.01,2013-05-31 04:16:00,
2013-05-31 00:19:00,76.5,76.5,30.03,South,191,5.3,30.1,100,0.07,,SKC,0.07,VWS V14.01,2013-05-31 04:19:00,
2013-05-31 00:20:00,76.6,76.5,30.03,South,184,4.3,30.1,100,0.07,,SKC,0.07,VWS V14.01,2013-05-31 04:20:00,
2013-05-31 00:21:00,76.5,76.5,30.03,SSE,160,5.8,30.1,100,0.07,,SKC,0.07,VWS V14.01,2013-05-31 04:21:00,
2013-05-31 00:24:00,76.7,76.7,30.04,SW,219,5.5,30.1,100,0.07,,SKC,0.07,VWS V14.01,2013-05-31 04:24:00,
2013-05-31 00:25:00,76.6,76.6,30.03,South,186,7.4,30.1,100,0.07,,SKC,0.07,VWS V14.01,2013-05-31 04:25:00,
2013-05-31 00:26:00,76.6,76.6,30.03,SSE,163,7.0,30.1,100,0.07,,SKC,0.07,VWS V14.01,2013-05-31 04:26:00,
2013-05-31 00:29:00,76.5,76.5,30.03,SSE,167,8.3,30.1,100,0.07,,SKC,0.07,VWS V14.01,2013-05-31 04:29:00,
2013-05-31 00:30:00,76.4,76.4,30.03,SSE,150,7.8,30.1,100,0.07,,SKC,0.07,VWS V14.01,2013-05-31 04:30:00,
2013-05-31 00:31:00,76.5,76.5,30.03,SSE,155,0.7,30.1,100,0.07,,SKC,0.07,VWS V14.01,2013-05-31 04:31:00,
2013-05-31 00:34:00,76.5,76.5,30.03,North,359,1.4,30.1,100,0.07,,SKC,0.07,VWS V14.01,2013-05-31 04:34:00,
2013-05-31 00:35:00,76.5,76.5,30.03,SW,214,2.7,30.1,100,0.07,,SKC,0.07,VWS V14.01,2013-05-31 04:35:00,
2013-05-31 00:37:00,76.5,76.5,30.04,South,187,7.5,30.1,100,0.07,,SKC,0.07,VWS V14.01,2013-05-31 04:37:00,
2013-05-31 00:39:00,76.6,76.6,30.03,SW,222,3.7,30.1,100,0.07,,SKC,0.07,VWS V14.01,2013-05-31 04:39:00,
2013-05-31 00:40:00,76.6,76.6,30.03,SSW,212,1.4,30.1,100,0.07,,SKC,0.07,VWS V14.01,2013-05-31 04:40:00,
2013-05-31 00:42:00,76.6,76.6,30.03,North,359,8.9,30.1,100,0.07,,SKC,0.07,VWS V14.01,2013-05-31 04:42:00,
2013-05-31 00:45:00,76.6,76.6,30.03,South,174,0.0,30.1,100,0.07,,SKC,0.07,VWS V14.01,2013-05-31 04:45:00,
2013-05-31 00:46:00,76.6,76.6,30.03,South,188,8.2,30.1,100,0.07,,SKC,0.07,VWS V14.01,2013-05-31 04:46:00,
2013-05-31 00:47:00,76.7,76.7,30.03,SSW,212,8.5,30.1,100,0.07,,SKC,0.07,VWS V14.01,2013-05-31 04:47:00,
2013-05-31 00:50:00,76.7,76.7,30.03,SSE,156,0.4,30.1,100,0.07,,SKC,0.07,VWS V14.01,2013-05-31 04:50:00,
2013-05-31 00:51:00,76.7,76.7,30.04,North,359,9.6,30.1,100,0.07,,SKC,0.07,VWS V14.01,2013-05-31 04:51:00,
2013-05-31 00:52:00,76.6,76.6,30.03,SSW,208,10.9,30.1,100,0.07,,SKC,0.07,VWS V14.01,2013-05-31 04:52:00,
2013-05-31 00:55:00,76.7,76.7,30.03,South,177,9.7,30.1,100,0.07,,SKC,0.07,VWS V14.01,2013-05-31 04:55:00,
2013-05-31 00:56:00,76.6,76.7,30.03,North,359,3.4,30.1,100,0.07,,SKC,0.07,VWS V14.01,2013-05-31 04:56:00,
2013-05-31 00:58:00,76.7,76.7,30.03,South,183,9.0,30.1,100,0.07,,SKC,0.07,VWS V14.01,2013-05-31 04:58:00,
2013-05-31 01:00:00,76.7,76.7,30.03,SSW,211,5.8,30.1,100,0.07,,SKC,0.07,VWS V14.01,2013-05-31 05:00:00,
2013-05-31 01:01:00,76.7,76.7,30.03,North,359,0.7,15.8,100,0.00,,SKC,0.07,VWS V14.01,2013-05-31 05:01:00,
2013-05-31 01:02:00,76.5,76.5,30.02,SSW,198,5.0,14.4,100,0.00,,SKC,0.00,VWS V14.01,2013-05-31 05:02:00,
2013-05-31 01:03:00,76.7,76.7,30.03,South,172,5.8,11.3,100,0.00,,SKC,0.07,VWS V14.01,2013-05-31 05:03:00,
2013-05-31 01:04:00,76.5,76.5,30.02,South,174,11.1,19.0,100,0.00,,SKC,0.00,VWS V14.01,2013-05-31 05:04:00,
2013-05-31 01:05:00,76.8,76.8,30.03,SW,233,8.0,8.4,100,0.00,,SKC,0.07,VWS V14.01,2013-05-31 05:05:00,
2013-05-31 01:06:00,76.8,76.8,30.03,SSE,158,6.5,7.3,100,0.00,,SKC,0.07,VWS V14.01,2013-05-31 05:06:00,
2013-05-31 01:07:00,76.8,76.8,30.03,South,183,9.7,14.4,100,0.00,,SKC,0.07,VWS V14.01,2013-05-31 05:07:00,
2013-05-31 01:08:00,76.7,76.7,30.03,SSE,163,5.0,6.9,100,0.00,,SKC,0.07,VWS V14.01,2013-05-31 05:08:00,
2013-05-31 01:10:00,76.8,76.8,30.03,South,169,1.1,10.8,100,0.00,,SKC,0.07,VWS V14.01,2013-05-31 05:10:00,
2013-05-31 01:11:00,76.8,76.8,30.03,SSE,153,9.3,9.3,100,0.00,,SKC,0.07,VWS V14.01,2013-05-31 05:11:00,
2013-05-31 01:12:00,76.8,76.8,30.03,South,188,6.1,8.4,100,0.00,,SKC,0.07,VWS V14.01,2013-05-31 05:12:00,
2013-05-31 01:13:00,76.8,76.8,30.03,SSW,208,9.3,12.7,100,0.00,,SKC,0.07,VWS V14.01,2013-05-31 05:13:00,
2013-05-31 01:15:00,76.7,76.7,30.03,South,172,0.2,14.3,100,0.00,,SKC,0.07,VWS V14.01,2013-05-31 05:15:00,
2013-05-31 01:16:00,76.7,76.7,30.03,North,359,0.0,2.9,100,0.00,,SKC,0.07,VWS V14.01,2013-05-31 05:16:00,
2013-05-31 01:17:00,76.8,76.7,30.03,South,179,9.4,18.4,100,0.00,,SKC,0.07,VWS V14.01,2013-05-31 05:17:00,
2013-05-31 01:18:00,76.7,76.7,30.03,SSE,159,12.0,12.4,100,0.00,,SKC,0.07,VWS V14.01,2013-05-31 05:18:00,
2013-05-31 01:20:00,76.7,76.7,30.03,SSE,159,0.7,7.1,100,0.00,,SKC,0.07,VWS V14.01,2013-05-31 05:20:00,
2013-05-31 01:21:00,76.7,76.7,30.03,SW,214,10.4,15.5,100,0.00,,SKC,0.07,VWS V14.01,2013-05-31 05:21:00,
2013-05-31 01:22:00,76.7,76.7,30.03,South,176,4.9,10.4,100,0.00,,SKC,0.07,VWS V14.01,2013-05-31 05:22:00,
2013-05-31 01:23:00,76.8,76.8,30.03,South,181,0.0,9.1,100,0.00,,SKC,0.07,VWS V14.01,2013-05-31 05:23:00,
2013-05-31 01:25:00,76.8,76.8,30.03,South,177,0.0,9.3,100,0.00,,SKC,0.07,VWS V14.01,2013-05-31 05:25:00,
2013-05-31 01:26:00,76.7,76.7,30.03,South,176,3.0,13.4,100,0.00,,SKC,0.07,VWS V14.01,2013-05-31 05:26:00,
2013-05-31 01:27:00,76.7,76.7,30.03,South,180,12.1,12.8,100,0.00,,SKC,0.07,VWS V14.01,2013-05-31 05:27:00,
2013-05-31 01:28:00,76.7,76.7,30.03,North,359,4.3,12.1,100,0.00,,SKC,0.07,VWS V14.01,2013-05-31 05:28:00,
2013-05-31 01:31:00,76.7,76.7,30.03,South,181,5.0,6.2,100,0.00,,SKC,0.07,VWS V14.01,2013-05-31 05:31:00,
2013-05-31 01:32:00,76.7,76.7,30.03,SSW,193,10.8,11.4,100,0.00,,SKC,0.07,VWS V14.01,2013-05-31 05:32:00,
2013-05-31 01:33:00,76.7,76.7,30.03,WSW,249,0.4,11.6,100,0.00,,SKC,0.07,VWS V14.01,2013-05-31 05:33:00,
2013-05-31 01:36:00,76.7,76.7,30.03,South,179,4.5,7.0,100,0.00,,SKC,0.07,VWS V14.01,2013-05-31 05:36:00,
2013-05-31 01:37:00,76.7,76.7,30.03,North,359,4.3,14.3,100,0.00,,SKC,0.07,VWS V14.01,2013-05-31 05:37:00,
2013-05-31 01:38:00,76.7,76.7,30.02,South,188,9.5,9.5,100,0.00,,SKC,0.07,VWS V14.01,2013-05-31 05:38:00,
2013-05-31 01:41:00,76.7,76.7,30.02,North,359,5.3,5.3,100,0.00,,SKC,0.07,VWS V14.01,2013-05-31 05:41:00,
2013-05-31 01:43:00,76.8,76.8,30.02,South,170,0.0,0.0,100,0.00,,SKC,0.07,VWS V14.01,2013-05-31 05:43:00,
2013-05-31 01:44:00,76.8,76.8,30.02,North,359,6.8,12.7,100,0.00,,SKC,0.07,VWS V14.01,2013-05-31 05:44:00,
2013-05-31 01:46:00,76.7,76.7,30.02,SSW,208,0.3,12.9,100,0.00,,SKC,0.07,VWS V14.01,2013-05-31 05:46:00,
2013-05-31 01:47:00,76.7,76.7,30.02,SSW,211,9.5,9.5,100,0.00,,SKC,0.07,VWS V14.01,2013-05-31 05:47:00,
2013-05-31 01:48:00,76.6,76.6,30.02,South,183,0.6,8.5,100,0.00,,SKC,0.07,VWS V14.01,2013-05-31 05:48:00,
2013-05-31 01:49:00,76.7,76.7,30.02,SSW,204,5.5,9.8,100,0.00,,SKC,0.07,VWS V14.01,2013-05-31 05:49:00,
2013-05-31 01:51:00,76.7,76.7,30.02,South,187,5.7,9.6,100,0.00,,SKC,0.07,VWS V14.01,2013-05-31 05:51:00,
2013-05-31 01:52:00,76.6,76.6,30.02,SSW,212,4.3,4.3,100,0.00,,SKC,0.07,VWS V14.01,2013-05-31 05:52:00,
2013-05-31 01:53:00,76.6,76.6,30.02,SSW,211,5.7,8.8,100,0.00,,SKC,0.07,VWS V14.01,2013-05-31 05:53:00,
2013-05-31 01:54:00,76.6,76.6,30.02,WSW,246,8.5,8.5,100,0.00,,SKC,0.07,VWS V14.01,2013-05-31 05:54:00,
2013-05-31 01:59:00,76.5,76.5,30.02,South,170,18.2,19.0,100,0.00,,SKC,0.00,VWS V14.01,2013-05-31 05:59:00,
2013-05-31 02:00:00,76.5,76.5,30.02,South,190,8.1,19.0,100,0.00,,SKC,0.00,VWS V14.01,2013-05-31 06:00:00,
2013-05-31 02:02:00,76.5,76.5,30.02,North,359,8.2,19.0,100,0.00,,SKC,0.00,VWS V14.01,2013-05-31 06:02:00,
2013-05-31 02:04:00,76.6,76.6,30.01,South,179,6.8,19.0,100,0.00,,SKC,0.00,VWS V14.01,2013-05-31 06:04:00,
2013-05-31 02:05:00,76.6,76.6,30.01,North,359,0.0,19.0,100,0.00,,SKC,0.00,VWS V14.01,2013-05-31 06:05:00,
2013-05-31 02:06:00,76.7,76.6,30.01,North,359,0.7,19.0,100,0.00,,SKC,0.00,VWS V14.01,2013-05-31 06:06:00,
2013-05-31 02:07:00,76.6,76.6,30.01,North,359,0.2,19.0,100,0.00,,SKC,0.00,VWS V14.01,2013-05-31 06:07:00,
2013-05-31 02:09:00,76.5,76.5,30.01,SSE,159,4.2,19.0,100,0.00,,SKC,0.00,VWS V14.01,2013-05-31 06:09:00,
2013-05-31 02:10:00,76.6,76.5,30.01,SSE,165,8.0,19.0,100,0.00,,SKC,0.00,VWS V14.01,2013-05-31 06:10:00,
2013-05-31 02:11:00,76.5,76.5,30.01,SSE,162,1.2,19.0,100,0.00,,SKC,0.00,VWS V14.01,2013-05-31 06:11:00,
2013-05-31 02:12:00,76.5,76.5,30.01,South,190,1.5,19.0,100,0.00,,SKC,0.00,VWS V14.01,2013-05-31 06:12:00,
2013-05-31 02:15:00,76.5,76.5,30.01,SSE,167,7.6,19.0,100,0.00,,SKC,0.00,VWS V14.01,2013-05-31 06:15:00,
2013-05-31 02:16:00,76.4,76.5,30.01,SW,221,0.0,19.0,100,0.00,,SKC,0.00,VWS V14.01,2013-05-31 06:16:00,
2013-05-31 02:17:00,76.5,76.6,30.00,South,191,0.2,19.0,100,0.00,,SKC,0.00,VWS V14.01,2013-05-31 06:17:00,
2013-05-31 02:20:00,76.4,76.4,30.01,South,170,8.5,19.0,100,0.00,,SKC,0.00,VWS V14.01,2013-05-31 06:20:00,
2013-05-31 02:21:00,76.4,76.4,30.01,SSW,195,0.3,19.0,100,0.00,,SKC,0.00,VWS V14.01,2013-05-31 06:21:00,
2013-05-31 02:22:00,76.4,76.4,30.01,South,186,0.0,19.0,100,0.00,,SKC,0.00,VWS V14.01,2013-05-31 06:22:00,
2013-05-31 02:25:00,76.4,76.4,30.00,North,359,0.0,19.0,100,0.00,,SKC,0.00,VWS V14.01,2013-05-31 06:25:00,
2013-05-31 02:26:00,76.5,76.5,30.00,North,359,0.0,19.0,100,0.00,,SKC,0.00,VWS V14.01,2013-05-31 06:26:00,
2013-05-31 02:27:00,76.5,76.5,30.00,North,359,8.1,19.0,100,0.00,,SKC,0.00,VWS V14.01,2013-05-31 06:27:00,
2013-05-31 02:30:00,76.5,76.5,30.00,SSW,207,0.3,19.0,100,0.00,,SKC,0.00,VWS V14.01,2013-05-31 06:30:00,
2013-05-31 02:31:00,76.6,76.6,30.01,South,174,0.0,19.0,100,0.00,,SKC,0.00,VWS V14.01,2013-05-31 06:31:00,
2013-05-31 02:33:00,76.5,76.5,30.01,SSW,201,0.0,19.0,100,0.00,,SKC,0.00,VWS V14.01,2013-05-31 06:33:00,
2013-05-31 02:35:00,76.5,76.5,30.01,SSW,200,0.0,19.0,100,0.00,,SKC,0.00,VWS V14.01,2013-05-31 06:35:00,
2013-05-31 02:36:00,76.5,76.5,30.00,SW,217,0.2,19.0,100,0.00,,SKC,0.00,VWS V14.01,2013-05-31 06:36:00,
2013-05-31 02:38:00,76.5,76.5,30.00,North,359,12.8,19.0,100,0.00,,SKC,0.00,VWS V14.01,2013-05-31 06:38:00,
2013-05-31 02:40:00,76.4,76.4,30.00,SW,222,7.1,19.0,100,0.00,,SKC,0.00,VWS V14.01,2013-05-31 06:40:00,
2013-05-31 02:41:00,76.4,76.4,30.00,SSE,163,0.0,19.0,100,0.00,,SKC,0.00,VWS V14.01,2013-05-31 06:41:00,
2013-05-31 02:42:00,76.3,76.3,30.00,SSW,198,0.6,19.0,100,0.00,,SKC,0.00,VWS V14.01,2013-05-31 06:42:00,
2013-05-31 02:43:00,76.3,76.3,30.00,SSW,212,9.1,19.0,100,0.00,,SKC,0.00,VWS V14.01,2013-05-31 06:43:00,
2013-05-31 02:45:00,76.3,76.3,30.00,SW,217,6.3,19.0,100,0.00,,SKC,0.00,VWS V14.01,2013-05-31 06:45:00,
2013-05-31 02:46:00,76.3,76.3,30.00,SSW,205,5.2,19.0,100,0.00,,SKC,0.00,VWS V14.01,2013-05-31 06:46:00,
2013-05-31 02:47:00,76.4,76.4,30.00,SSE,159,0.2,19.0,100,0.00,,SKC,0.00,VWS V14.01,2013-05-31 06:47:00,
2013-05-31 02:48:00,76.3,76.3,30.00,North,359,0.9,19.0,100,0.00,,SKC,0.00,VWS V14.01,2013-05-31 06:48:00,
2013-05-31 02:51:00,76.4,76.4,30.00,South,190,9.0,19.0,100,0.00,,SKC,0.00,VWS V14.01,2013-05-31 06:51:00,
2013-05-31 02:52:00,76.3,76.3,30.00,SSW,194,11.1,19.0,100,0.00,,SKC,0.00,VWS V14.01,2013-05-31 06:52:00,
2013-05-31 02:53:00,76.3,76.3,30.00,SSE,162,2.1,19.0,100,0.00,,SKC,0.00,VWS V14.01,2013-05-31 06:53:00,
2013-05-31 02:56:00,76.3,76.3,30.00,North,359,0.7,19.0,100,0.00,,SKC,0.00,VWS V14.01,2013-05-31 06:56:00,
2013-05-31 02:57:00,76.4,76.3,30.00,SW,224,8.9,19.0,100,0.00,,SKC,0.00,VWS V14.01,2013-05-31 06:57:00,
2013-05-31 02:58:00,76.4,76.4,30.00,South,169,10.3,19.0,100,0.00,,SKC,0.00,VWS V14.01,2013-05-31 06:58:00,
2013-05-31 03:01:00,76.4,76.4,29.99,North,359,8.6,19.0,100,0.00,,SKC,0.00,VWS V14.01,2013-05-31 07:01:00,
2013-05-31 03:02:00,76.3,76.3,29.99,South,184,13.5,19.0,100,0.00,,SKC,0.00,VWS V14.01,2013-05-31 07:02:00,
2013-05-31 03:03:00,76.4,76.4,29.99,North,359,0.6,19.0,100,0.00,,SKC,0.00,VWS V14.01,2013-05-31 07:03:00,
2013-05-31 03:06:00,76.3,76.3,29.99,SSW,212,8.1,19.0,100,0.00,,SKC,0.00,VWS V14.01,2013-05-31 07:06:00,
2013-05-31 03:07:00,76.3,76.3,29.99,South,184,8.5,19.0,100,0.00,,SKC,0.00,VWS V14.01,2013-05-31 07:07:00,
2013-05-31 03:08:00,76.3,76.3,29.99,South,180,9.6,19.0,100,0.00,,SKC,0.00,VWS V14.01,2013-05-31 07:08:00,
2013-05-31 03:11:00,76.4,76.4,29.99,SSE,167,7.6,19.0,100,0.00,,SKC,0.00,VWS V14.01,2013-05-31 07:11:00,
2013-05-31 03:12:00,76.3,76.3,29.99,North,359,6.2,19.0,100,0.00,,SKC,0.00,VWS V14.01,2013-05-31 07:12:00,
2013-05-31 03:13:00,76.2,76.2,29.99,North,359,0.2,19.0,100,0.00,,SKC,0.00,VWS V14.01,2013-05-31 07:13:00,
2013-05-31 03:14:00,76.3,76.3,30.00,South,173,5.5,19.0,100,0.00,,SKC,0.00,VWS V14.01,2013-05-31 07:14:00,
2013-05-31 03:16:00,76.3,76.3,30.00,South,173,0.0,19.0,100,0.00,,SKC,0.00,VWS V14.01,2013-05-31 07:16:00,
2013-05-31 03:17:00,76.3,76.3,30.00,North,359,0.0,19.0,100,0.00,,SKC,0.00,VWS V14.01,2013-05-31 07:17:00,
2013-05-31 03:18:00,76.3,76.3,30.00,South,191,4.1,19.0,100,0.00,,SKC,0.00,VWS V14.01,2013-05-31 07:18:00,
2013-05-31 03:19:00,76.3,76.3,30.00,South,187,5.5,19.0,100,0.00,,SKC,0.00,VWS V14.01,2013-05-31 07:19:00,
2013-05-31 03:21:00,76.4,76.4,30.00,SW,214,5.7,19.0,100,0.00,,SKC,0.00,VWS V14.01,2013-05-31 07:21:00,
2013-05-31 03:22:00,76.3,76.3,30.00,SSW,202,7.7,19.0,100,0.00,,SKC,0.00,VWS V14.01,2013-05-31 07:22:00,
2013-05-31 03:23:00,76.2,76.2,30.00,SSW,205,13.5,19.0,100,0.00,,SKC,0.00,VWS V14.01,2013-05-31 07:23:00,
2013-05-31 03:24:00,76.3,76.3,30.00,South,187,8.0,19.0,100,0.00,,SKC,0.00,VWS V14.01,2013-05-31 07:24:00,
2013-05-31 03:26:00,76.3,76.3,30.00,South,187,11.0,19.0,100,0.00,,SKC,0.00,VWS V14.01,2013-05-31 07:26:00,
2013-05-31 03:27:00,76.3,76.3,30.00,SSE,158,1.0,19.0,100,0.00,,SKC,0.00,VWS V14.01,2013-05-31 07:27:00,
2013-05-31 03:28:00,76.3,76.3,30.00,North,359,0.9,19.0,100,0.00,,SKC,0.00,VWS V14.01,2013-05-31 07:28:00,
2013-05-31 03:29:00,76.2,76.2,30.00,SSW,208,0.0,19.0,100,0.00,,SKC,0.00,VWS V14.01,2013-05-31 07:29:00,
2013-05-31 03:32:00,76.3,76.3,30.00,SSW,193,13.4,19.0,100,0.00,,SKC,0.00,VWS V14.01,2013-05-31 07:32:00,
2013-05-31 03:33:00,76.3,76.3,30.00,South,191,6.7,19.0,100,0.00,,SKC,0.00,VWS V14.01,2013-05-31 07:33:00,
2013-05-31 03:34:00,76.3,76.3,29.99,North,359,0.4,19.0,100,0.00,,SKC,0.00,VWS V14.01,2013-05-31 07:34:00,
2013-05-31 03:37:00,76.3,76.3,29.99,North,359,0.3,19.0,100,0.00,,SKC,0.00,VWS V14.01,2013-05-31 07:37:00,
2013-05-31 03:38:00,76.3,76.3,29.99,SSW,194,1.1,19.0,100,0.00,,SKC,0.00,VWS V14.01,2013-05-31 07:38:00,
2013-05-31 03:39:00,76.3,76.3,30.00,SW,219,9.7,19.0,100,0.00,,SKC,0.00,VWS V14.01,2013-05-31 07:39:00,
2013-05-31 03:40:00,76.3,76.3,30.00,SW,219,4.0,19.0,100,0.00,,SKC,0.00,VWS V14.01,2013-05-31 07:40:00,
2013-05-31 03:42:00,76.3,76.3,29.99,North,359,9.4,19.0,100,0.00,,SKC,0.00,VWS V14.01,2013-05-31 07:42:00,
2013-05-31 03:43:00,76.4,76.4,29.99,SW,224,8.6,19.0,100,0.00,,SKC,0.00,VWS V14.01,2013-05-31 07:43:00,
2013-05-31 03:44:00,76.4,76.4,29.99,South,174,9.1,19.0,100,0.00,,SKC,0.00,VWS V14.01,2013-05-31 07:44:00,
2013-05-31 03:45:00,76.3,76.3,29.99,South,174,0.2,19.0,100,0.00,,SKC,0.00,VWS V14.01,2013-05-31 07:45:00,
2013-05-31 03:47:00,76.4,76.4,29.99,SSW,205,14.2,19.0,100,0.00,,SKC,0.00,VWS V14.01,2013-05-31 07:47:00,
2013-05-31 03:49:00,76.3,76.3,29.99,SW,226,8.8,19.0,100,0.00,,SKC,0.00,VWS V14.01,2013-05-31 07:49:00,
2013-05-31 03:50:00,76.4,76.4,29.99,SW,224,0.2,19.0,100,0.00,,SKC,0.00,VWS V14.01,2013-05-31 07:50:00,
2013-05-31 03:52:00,76.4,76.4,29.99,SW,217,9.2,19.0,100,0.00,,SKC,0.00,VWS V14.01,2013-05-31 07:52:00,
2013-05-31 03:53:00,76.4,76.4,29.99,SW,226,11.9,19.0,100,0.00,,SKC,0.00,VWS V14.01,2013-05-31 07:53:00,
2013-05-31 03:54:00,76.3,76.3,29.99,South,174,0.2,19.0,100,0.00,,SKC,0.00,VWS V14.01,2013-05-31 07:54:00,
2013-05-31 03:55:00,76.4,76.4,29.99,SSE,159,6.9,19.0,100,0.00,,SKC,0.00,VWS V14.01,2013-05-31 07:55:00,
2013-05-31 03:58:00,76.4,76.4,29.99,SSW,211,12.7,19.0,100,0.00,,SKC,0.00,VWS V14.01,2013-05-31 07:58:00,
2013-05-31 03:59:00,76.4,76.4,29.98,SSE,165,6.8,19.0,100,0.00,,SKC,0.00,VWS V14.01,2013-05-31 07:59:00,
2013-05-31 04:00:00,76.4,76.4,29.98,North,359,2.9,19.0,100,0.00,,SKC,0.00,VWS V14.01,2013-05-31 08:00:00,
2013-05-31 04:03:00,76.4,76.4,29.98,North,359,1.7,19.0,100,0.00,,SKC,0.00,VWS V14.01,2013-05-31 08:03:00,
2013-05-31 04:04:00,76.4,76.4,29.98,SSW,212,0.5,19.0,100,0.00,,SKC,0.00,VWS V14.01,2013-05-31 08:04:00,
2013-05-31 04:05:00,76.5,76.5,29.98,SSW,212,9.3,19.0,100,0.00,,SKC,0.00,VWS V14.01,2013-05-31 08:05:00,
2013-05-31 04:08:00,76.6,76.6,29.98,South,190,7.3,19.0,100,0.00,,SKC,0.00,VWS V14.01,2013-05-31 08:08:00,
2013-05-31 04:09:00,76.5,76.5,29.98,SSW,210,7.9,19.0,100,0.00,,SKC,0.00,VWS V14.01,2013-05-31 08:09:00,
2013-05-31 04:10:00,76.6,76.6,29.98,SSW,201,0.2,19.0,100,0.00,,SKC,0.00,VWS V14.01,2013-05-31 08:10:00,
2013-05-31 04:13:00,76.6,76.6,29.98,North,359,3.4,19.0,100,0.00,,SKC,0.00,VWS V14.01,2013-05-31 08:13:00,
2013-05-31 04:14:00,76.6,76.6,29.98,North,359,12.1,19.0,100,0.00,,SKC,0.00,VWS V14.01,2013-05-31 08:14:00,
2013-05-31 04:15:00,76.6,76.6,29.98,SSW,207,8.9,19.0,100,0.00,,SKC,0.00,VWS V14.01,2013-05-31 08:15:00,
2013-05-31 04:16:00,76.5,76.6,29.98,North,359,2.4,19.0,100,0.00,,SKC,0.00,VWS V14.01,2013-05-31 08:16:00,
2013-05-31 04:18:00,76.6,76.6,29.98,South,169,14.9,19.0,100,0.00,,SKC,0.00,VWS V14.01,2013-05-31 08:18:00,
2013-05-31 04:19:00,76.6,76.6,29.98,SSW,195,11.2,19.0,100,0.00,,SKC,0.00,VWS V14.01,2013-05-31 08:19:00,
2013-05-31 04:20:00,76.5,76.5,29.98,North,359,10.7,19.0,100,0.00,,SKC,0.00,VWS V14.01,2013-05-31 08:20:00,
2013-05-31 04:21:00,76.6,76.6,29.98,SSW,200,12.2,19.0,100,0.00,,SKC,0.00,VWS V14.01,2013-05-31 08:21:00,
2013-05-31 04:24:00,76.7,76.7,29.98,SSW,207,8.0,19.0,100,0.00,,SKC,0.00,VWS V14.01,2013-05-31 08:24:00,
2013-05-31 04:26:00,76.6,76.6,29.98,North,359,0.0,19.0,100,0.00,,SKC,0.00,VWS V14.01,2013-05-31 08:26:00,
2013-05-31 04:29:00,76.7,76.7,29.98,South,184,10.7,19.0,100,0.00,,SKC,0.00,VWS V14.01,2013-05-31 08:29:00,
2013-05-31 04:31:00,76.6,76.6,29.98,SW,229,0.0,19.0,100,0.00,,SKC,0.00,VWS V14.01,2013-05-31 08:31:00,
2013-05-31 04:34:00,76.5,76.5,29.98,South,186,15.2,19.0,100,0.00,,SKC,0.00,VWS V14.01,2013-05-31 08:34:00,
2013-05-31 04:36:00,76.5,76.5,29.98,SSW,197,6.2,19.0,100,0.00,,SKC,0.00,VWS V14.01,2013-05-31 08:36:00,
2013-05-31 04:37:00,76.6,76.4,29.98,North,359,9.8,19.0,100,0.00,,SKC,0.00,VWS V14.01,2013-05-31 08:37:00,
2013-05-31 04:39:00,76.6,76.6,29.98,North,359,0.3,19.0,100,0.00,,SKC,0.00,VWS V14.01,2013-05-31 08:39:00,
2013-05-31 04:40:00,76.6,76.6,29.98,SSE,155,10.5,19.0,100,0.00,,SKC,0.00,VWS V14.01,2013-05-31 08:40:00,
2013-05-31 04:41:00,76.6,76.6,29.98,SW,228,1.9,19.0,100,0.00,,SKC,0.00,VWS V14.01,2013-05-31 08:41:00,
2013-05-31 04:42:00,76.5,76.5,29.98,North,359,7.6,19.0,100,0.00,,SKC,0.00,VWS V14.01,2013-05-31 08:42:00,
2013-05-31 04:44:00,76.5,76.5,29.98,North,359,8.1,19.0,100,0.00,,SKC,0.00,VWS V14.01,2013-05-31 08:44:00,
2013-05-31 04:45:00,76.5,76.5,29.98,North,359,4.7,19.0,100,0.00,,SKC,0.00,VWS V14.01,2013-05-31 08:45:00,
2013-05-31 04:46:00,76.6,76.6,29.98,SW,218,15.5,19.0,100,0.00,,SKC,0.00,VWS V14.01,2013-05-31 08:46:00,
2013-05-31 04:47:00,76.5,76.5,29.98,SSW,211,8.6,19.0,100,0.00,,SKC,0.00,VWS V14.01,2013-05-31 08:47:00,
2013-05-31 04:49:00,76.4,76.4,29.98,SSW,195,9.2,19.0,100,0.00,,SKC,0.00,VWS V14.01,2013-05-31 08:49:00,
2013-05-31 04:50:00,76.5,76.5,29.98,SW,215,12.2,19.0,100,0.00,,SKC,0.00,VWS V14.01,2013-05-31 08:50:00,
2013-05-31 04:52:00,76.5,76.5,29.98,North,359,5.7,19.0,100,0.00,,SKC,0.00,VWS V14.01,2013-05-31 08:52:00,
2013-05-31 04:54:00,76.4,76.4,29.98,North,359,9.3,19.0,100,0.00,,SKC,0.00,VWS V14.01,2013-05-31 08:54:00,
2013-05-31 04:55:00,76.5,76.6,29.98,North,359,1.1,19.0,100,0.00,,SKC,0.00,VWS V14.01,2013-05-31 08:55:00,
2013-05-31 04:57:00,76.5,76.5,29.98,SSE,158,10.4,19.0,100,0.00,,SKC,0.00,VWS V14.01,2013-05-31 08:57:00,
2013-05-31 04:59:00,76.5,76.5,29.98,SW,214,3.1,19.0,100,0.00,,SKC,0.00,VWS V14.01,2013-05-31 08:59:00,
2013-05-31 05:00:00,76.5,76.5,29.98,South,188,1.1,19.0,100,0.00,,SKC,0.00,VWS V14.01,2013-05-31 09:00:00,
2013-05-31 05:02:00,76.4,76.4,29.98,North,359,0.9,19.0,100,0.00,,SKC,0.00,VWS V14.01,2013-05-31 09:02:00,
2013-05-31 05:03:00,76.4,76.4,29.98,South,177,1.9,19.0,100,0.00,,SKC,0.00,VWS V14.01,2013-05-31 09:03:00,
2013-05-31 05:04:00,76.5,76.5,29.98,North,359,2.9,19.0,100,0.00,,SKC,0.00,VWS V14.01,2013-05-31 09:04:00,
2013-05-31 05:05:00,76.5,76.5,29.98,SSW,202,6.4,19.0,100,0.00,,SKC,0.00,VWS V14.01,2013-05-31 09:05:00,
2013-05-31 05:07:00,76.4,76.4,29.98,SW,217,6.8,19.0,100,0.00,,SKC,0.00,VWS V14.01,2013-05-31 09:07:00,
2013-05-31 05:08:00,76.4,76.4,29.98,SW,215,7.4,19.0,100,0.00,,SKC,0.00,VWS V14.01,2013-05-31 09:08:00,
2013-05-31 05:10:00,76.4,76.4,29.98,North,359,1.6,19.0,100,0.00,,SKC,0.00,VWS V14.01,2013-05-31 09:10:00,
2013-05-31 05:11:00,76.4,76.4,29.98,South,183,0.4,19.0,100,0.00,,SKC,0.00,VWS V14.01,2013-05-31 09:11:00,
2013-05-31 05:12:00,76.4,76.4,29.98,SW,214,9.1,19.0,100,0.00,,SKC,0.00,VWS V14.01,2013-05-31 09:12:00,
2013-05-31 05:13:00,76.4,76.4,29.98,South,169,11.9,19.0,100,0.00,,SKC,0.00,VWS V14.01,2013-05-31 09:13:00,
2013-05-31 05:15:00,76.4,76.4,29.98,North,359,4.7,19.0,100,0.00,,SKC,0.00,VWS V14.01,2013-05-31 09:15:00,
2013-05-31 05:16:00,76.4,76.4,29.98,North,359,0.4,19.0,100,0.00,,SKC,0.00,VWS V14.01,2013-05-31 09:16:00,
2013-05-31 05:17:00,76.3,76.4,29.98,SSE,163,4.8,19.0,100,0.00,,SKC,0.00,VWS V14.01,2013-05-31 09:17:00,
2013-05-31 05:18:00,76.3,76.3,29.98,SSW,211,0.0,19.0,100,0.00,,SKC,0.00,VWS V14.01,2013-05-31 09:18:00,
2013-05-31 05:20:00,76.4,76.4,29.98,SSE,162,0.4,19.0,100,0.00,,SKC,0.00,VWS V14.01,2013-05-31 09:20:00,
2013-05-31 05:21:00,76.3,76.3,29.98,SSW,195,0.0,19.0,100,0.00,,SKC,0.00,VWS V14.01,2013-05-31 09:21:00,
2013-05-31 05:22:00,76.4,76.4,29.98,North,359,0.3,19.0,100,0.00,,SKC,0.00,VWS V14.01,2013-05-31 09:22:00,
2013-05-31 05:23:00,76.4,76.4,29.98,SSE,153,10.5,19.0,100,0.00,,SKC,0.00,VWS V14.01,2013-05-31 09:23:00,
2013-05-31 05:25:00,76.4,76.4,29.98,North,359,6.3,19.0,100,0.00,,SKC,0.00,VWS V14.01,2013-05-31 09:25:00,
2013-05-31 05:26:00,76.3,76.3,29.98,South,173,7.3,19.0,100,0.00,,SKC,0.00,VWS V14.01,2013-05-31 09:26:00,
2013-05-31 05:27:00,76.3,76.3,29.98,North,359,9.4,19.0,100,0.00,,SKC,0.00,VWS V14.01,2013-05-31 09:27:00,
2013-05-31 05:28:00,76.3,76.3,29.98,South,184,0.0,19.0,100,0.00,,SKC,0.00,VWS V14.01,2013-05-31 09:28:00,
2013-05-31 05:30:00,76.3,76.3,29.98,South,184,0.0,19.0,100,0.00,,SKC,0.00,VWS V14.01,2013-05-31 09:30:00,
2013-05-31 05:31:00,76.3,76.3,29.98,South,186,1.6,19.0,100,0.00,,SKC,0.00,VWS V14.01,2013-05-31 09:31:00,
2013-05-31 05:32:00,76.3,76.3,29.98,SSW,212,7.9,19.0,100,0.00,,SKC,0.00,VWS V14.01,2013-05-31 09:32:00,
2013-05-31 05:34:00,76.3,76.3,29.98,SW,214,6.3,19.0,100,0.00,,SKC,0.00,VWS V14.01,2013-05-31 09:34:00,
2013-05-31 05:35:00,76.3,76.3,29.98,SW,221,0.0,19.0,100,0.00,,SKC,0.00,VWS V14.01,2013-05-31 09:35:00,
2013-05-31 05:36:00,76.3,76.3,29.98,North,359,2.4,19.0,100,0.00,,SKC,0.00,VWS V14.01,2013-05-31 09:36:00,
2013-05-31 05:37:00,76.3,76.3,29.98,SW,236,8.6,19.0,100,0.00,,SKC,0.00,VWS V14.01,2013-05-31 09:37:00,
2013-05-31 05:39:00,76.3,76.3,29.98,SW,221,8.4,19.0,100,0.00,,SKC,0.00,VWS V14.01,2013-05-31 09:39:00,
2013-05-31 05:40:00,76.2,76.2,29.98,North,359,0.8,19.0,100,0.00,,SKC,0.00,VWS V14.01,2013-05-31 09:40:00,
2013-05-31 05:41:00,76.2,76.2,29.98,North,359,1.7,19.0,100,0.00,,SKC,0.00,VWS V14.01,2013-05-31 09:41:00,
2013-05-31 05:42:00,76.3,76.3,29.98,South,174,7.8,19.0,100,0.00,,SKC,0.00,VWS V14.01,2013-05-31 09:42:00,
2013-05-31 05:43:00,76.3,76.3,29.98,SSW,201,9.9,19.0,100,0.00,,SKC,0.00,VWS V14.01,2013-05-31 09:43:00,
2013-05-31 05:44:00,76.4,76.4,29.98,South,180,9.1,19.0,100,0.00,,SKC,0.00,VWS V14.01,2013-05-31 09:44:00,
2013-05-31 05:45:00,76.3,76.4,29.98,SW,228,6.4,19.0,100,0.00,,SKC,0.00,VWS V14.01,2013-05-31 09:45:00,
2013-05-31 05:46:00,76.3,76.3,29.98,North,359,8.0,19.0,100,0.00,,SKC,0.00,VWS V14.01,2013-05-31 09:46:00,
2013-05-31 05:47:00,76.4,76.4,29.98,North,359,8.9,19.0,100,0.00,,SKC,0.00,VWS V14.01,2013-05-31 09:47:00,
2013-05-31 05:48:00,76.3,76.3,29.98,North,359,7.9,19.0,100,0.00,,SKC,0.00,VWS V14.01,2013-05-31 09:48:00,
2013-05-31 05:49:00,76.3,76.3,29.98,South,186,14.4,19.0,100,0.00,,SKC,0.00,VWS V14.01,2013-05-31 09:49:00,
2013-05-31 05:50:00,76.2,76.2,29.98,SSE,165,8.8,19.0,100,0.00,,SKC,0.00,VWS V14.01,2013-05-31 09:50:00,
2013-05-31 05:52:00,76.2,76.2,29.98,SSE,153,6.5,19.0,100,0.00,,SKC,0.00,VWS V14.01,2013-05-31 09:52:00,
2013-05-31 05:53:00,76.2,76.2,29.98,South,183,0.5,19.0,100,0.00,,SKC,0.00,VWS V14.01,2013-05-31 09:53:00,
2013-05-31 05:54:00,76.2,76.2,29.99,SW,224,8.6,19.0,100,0.00,,SKC,0.00,VWS V14.01,2013-05-31 09:54:00,
2013-05-31 05:55:00,76.2,76.2,29.99,SW,214,7.4,19.0,100,0.00,,SKC,0.00,VWS V14.01,2013-05-31 09:55:00,
2013-05-31 05:57:00,76.2,76.2,29.99,SSW,198,8.0,19.0,100,0.00,,SKC,0.00,VWS V14.01,2013-05-31 09:57:00,
2013-05-31 05:58:00,76.3,76.3,29.99,SSE,149,0.0,19.0,100,0.00,,SKC,0.00,VWS V14.01,2013-05-31 09:58:00,
2013-05-31 05:59:00,76.2,76.2,29.99,SSW,194,11.5,19.0,100,0.00,,SKC,0.00,VWS V14.01,2013-05-31 09:59:00,
2013-05-31 06:00:00,76.3,76.3,29.99,SW,217,0.0,19.0,100,0.00,,SKC,0.00,VWS V14.01,2013-05-31 10:00:00,
2013-05-31 06:02:00,76.3,76.3,29.99,SSW,198,9.0,19.0,100,0.00,,SKC,0.00,VWS V14.01,2013-05-31 10:02:00,
2013-05-31 06:03:00,76.2,76.3,29.99,SW,215,7.5,19.0,100,0.00,,SKC,0.00,VWS V14.01,2013-05-31 10:03:00,
2013-05-31 06:04:00,76.3,76.3,29.99,SSW,207,0.4,19.0,100,0.00,,SKC,0.00,VWS V14.01,2013-05-31 10:04:00,
2013-05-31 06:05:00,76.2,76.2,29.98,SSW,202,0.0,19.0,100,0.00,,SKC,0.00,VWS V14.01,2013-05-31 10:05:00,
2013-05-31 06:07:00,76.3,76.3,29.99,North,359,5.3,19.0,100,0.00,,SKC,0.00,VWS V14.01,2013-05-31 10:07:00,
2013-05-31 06:08:00,76.2,76.2,29.99,SSW,210,9.8,19.0,100,0.00,,SKC,0.00,VWS V14.01,2013-05-31 10:08:00,
2013-05-31 06:09:00,76.3,76.3,29.99,South,170,5.5,19.0,100,0.00,,SKC,0.00,VWS V14.01,2013-05-31 10:09:00,
2013-05-31 06:11:00,76.3,76.3,29.99,SSW,204,11.2,19.0,100,0.00,,SKC,0.00,VWS V14.01,2013-05-31 10:11:00,
2013-05-31 06:12:00,76.3,76.3,29.99,South,190,6.3,19.0,100,0.00,,SKC,0.00,VWS V14.01,2013-05-31 10:12:00,
2013-05-31 06:13:00,76.2,76.2,29.99,SW,225,5.3,19.0,100,0.00,,SKC,0.00,VWS V14.01,2013-05-31 10:13:00,
2013-05-31 06:14:00,76.2,76.2,29.99,SSW,212,8.6,19.0,100,0.00,,SKC,0.00,VWS V14.01,2013-05-31 10:14:00,
2013-05-31 06:16:00,76.2,76.2,29.99,WSW,245,0.0,19.0,100,0.00,,SKC,0.00,VWS V14.01,2013-05-31 10:16:00,
2013-05-31 06:17:00,76.2,76.2,29.99,SSW,202,0.0,19.0,100,0.00,,SKC,0.00,VWS V14.01,2013-05-31 10:17:00,
2013-05-31 06:18:00,76.2,76.2,29.99,South,180,0.0,19.0,100,0.00,,SKC,0.00,VWS V14.01,2013-05-31 10:18:00,
2013-05-31 06:19:00,76.2,76.2,29.99,South,170,9.8,19.0,100,0.00,,SKC,0.00,VWS V14.01,2013-05-31 10:19:00,
2013-05-31 06:21:00,76.2,76.2,29.99,SSW,200,6.3,19.0,100,0.00,,SKC,0.00,VWS V14.01,2013-05-31 10:21:00,
2013-05-31 06:23:00,76.2,76.2,29.99,SW,222,0.0,19.0,100,0.00,,SKC,0.00,VWS V14.01,2013-05-31 10:23:00,
2013-05-31 06:24:00,76.2,76.2,29.99,SSW,212,1.3,19.0,100,0.00,,SKC,0.00,VWS V14.01,2013-05-31 10:24:00,
2013-05-31 06:26:00,76.1,76.1,29.99,South,176,9.8,19.0,100,0.00,,SKC,0.00,VWS V14.01,2013-05-31 10:26:00,
2013-05-31 06:28:00,76.1,76.1,29.99,South,179,7.5,19.0,100,0.00,,SKC,0.00,VWS V14.01,2013-05-31 10:28:00,
2013-05-31 06:29:00,76.2,76.2,29.99,SW,217,4.1,19.0,100,0.00,,SKC,0.00,VWS V14.01,2013-05-31 10:29:00,
2013-05-31 06:30:00,76.2,76.2,29.99,SSW,198,0.2,19.0,100,0.00,,SKC,0.00,VWS V14.01,2013-05-31 10:30:00,
2013-05-31 06:31:00,76.3,76.3,30.00,WSW,238,0.0,19.0,100,0.00,,SKC,0.00,VWS V14.01,2013-05-31 10:31:00,
2013-05-31 06:33:00,76.1,76.1,29.99,North,359,10.0,19.0,100,0.00,,SKC,0.00,VWS V14.01,2013-05-31 10:33:00,
2013-05-31 06:34:00,76.1,76.1,29.99,SSE,163,8.5,19.0,100,0.00,,SKC,0.00,VWS V14.01,2013-05-31 10:34:00,
2013-05-31 06:35:00,76.1,76.1,29.99,SSW,205,5.8,19.0,100,0.00,,SKC,0.00,VWS V14.01,2013-05-31 10:35:00,
2013-05-31 06:36:00,76.2,76.2,30.00,South,172,0.6,19.0,100,0.00,,SKC,0.00,VWS V14.01,2013-05-31 10:36:00,
2013-05-31 06:38:00,76.1,76.1,30.00,SW,235,8.3,19.0,100,0.00,,SKC,0.00,VWS V14.01,2013-05-31 10:38:00,
2013-05-31 06:39:00,76.2,76.2,30.00,SSW,210,8.3,19.0,100,0.00,,SKC,0.00,VWS V14.01,2013-05-31 10:39:00,
2013-05-31 06:40:00,76.2,76.2,30.00,SW,221,6.9,19.0,100,0.00,,SKC,0.00,VWS V14.01,2013-05-31 10:40:00,
2013-05-31 06:41:00,76.2,76.2,30.00,SW,225,0.3,19.0,100,0.00,,SKC,0.00,VWS V14.01,2013-05-31 10:41:00,
2013-05-31 06:43:00,76.2,76.2,30.00,South,190,6.3,19.0,100,0.00,,SKC,0.00,VWS V14.01,2013-05-31 10:43:00,
2013-05-31 06:44:00,76.2,76.2,30.00,SW,219,7.5,19.0,100,0.00,,SKC,0.00,VWS V14.01,2013-05-31 10:44:00,
2013-05-31 06:45:00,76.2,76.2,30.00,SW,228,1.4,19.0,100,0.00,,SKC,0.00,VWS V14.01,2013-05-31 10:45:00,
2013-05-31 06:46:00,76.1,76.1,30.00,North,359,1.0,19.0,100,0.00,,SKC,0.00,VWS V14.01,2013-05-31 10:46:00,
2013-05-31 06:48:00,76.1,76.1,30.00,SSW,193,7.3,19.0,100,0.00,,SKC,0.00,VWS V14.01,2013-05-31 10:48:00,
2013-05-31 06:49:00,76.2,76.2,30.00,SW,233,12.1,19.0,100,0.00,,SKC,0.00,VWS V14.01,2013-05-31 10:49:00,
2013-05-31 06:50:00,76.2,76.2,30.00,North,359,7.3,19.0,100,0.00,,SKC,0.00,VWS V14.01,2013-05-31 10:50:00,
2013-05-31 06:51:00,76.1,76.1,30.00,SW,222,2.7,19.0,100,0.00,,SKC,0.00,VWS V14.01,2013-05-31 10:51:00,
2013-05-31 06:53:00,76.1,76.1,30.00,SW,217,0.9,19.0,100,0.00,,SKC,0.00,VWS V14.01,2013-05-31 10:53:00,
2013-05-31 06:54:00,76.1,76.1,30.00,South,186,0.8,19.0,100,0.00,,SKC,0.00,VWS V14.01,2013-05-31 10:54:00,
2013-05-31 06:55:00,76.1,76.1,30.00,SSW,207,8.3,19.0,100,0.00,,SKC,0.00,VWS V14.01,2013-05-31 10:55:00,
2013-05-31 06:56:00,76.1,76.1,30.00,SW,235,6.8,19.0,100,0.00,,SKC,0.00,VWS V14.01,2013-05-31 10:56:00,
2013-05-31 06:58:00,76.2,76.2,30.00,SSE,162,8.6,19.0,100,0.00,,SKC,0.00,VWS V14.01,2013-05-31 10:58:00,
2013-05-31 06:59:00,76.1,76.1,30.00,SSE,152,4.8,19.0,100,0.00,,SKC,0.00,VWS V14.01,2013-05-31 10:59:00,
2013-05-31 07:00:00,76.2,76.2,30.00,SW,214,5.5,19.0,100,0.00,,SKC,0.00,VWS V14.01,2013-05-31 11:00:00,
2013-05-31 07:01:00,76.2,76.2,30.00,SW,233,6.7,19.0,100,0.00,,SKC,0.00,VWS V14.01,2013-05-31 11:01:00,
2013-05-31 07:03:00,76.2,76.2,30.01,SSW,205,6.7,19.0,100,0.00,,SKC,0.00,VWS V14.01,2013-05-31 11:03:00,
2013-05-31 07:04:00,76.2,76.2,30.01,North,359,0.2,19.0,100,0.00,,SKC,0.00,VWS V14.01,2013-05-31 11:04:00,
2013-05-31 07:05:00,76.3,76.3,30.01,South,173,6.7,19.0,100,0.00,,SKC,0.00,VWS V14.01,2013-05-31 11:05:00,
2013-05-31 07:06:00,76.2,76.2,30.01,SW,233,5.5,19.0,100,0.00,,SKC,0.00,VWS V14.01,2013-05-31 11:06:00,
2013-05-31 07:08:00,76.3,76.3,30.00,SW,225,5.6,19.0,100,0.00,,SKC,0.00,VWS V14.01,2013-05-31 11:08:00,
2013-05-31 07:10:00,76.3,76.3,30.01,SW,214,5.2,19.0,100,0.00,,SKC,0.00,VWS V14.01,2013-05-31 11:10:00,
2013-05-31 07:11:00,76.3,76.3,30.01,WSW,238,4.0,19.0,100,0.00,,SKC,0.00,VWS V14.01,2013-05-31 11:11:00,
2013-05-31 07:12:00,76.3,76.3,30.01,South,181,8.8,19.0,100,0.00,,SKC,0.00,VWS V14.01,2013-05-31 11:12:00,
2013-05-31 07:13:00,76.4,76.3,30.01,SW,235,9.2,19.0,100,0.00,,SKC,0.00,VWS V14.01,2013-05-31 11:13:00,
2013-05-31 07:14:00,76.3,76.3,30.01,SSE,162,8.5,19.0,100,0.00,,SKC,0.00,VWS V14.01,2013-05-31 11:14:00,
2013-05-31 07:15:00,76.3,76.3,30.01,SSW,207,7.1,19.0,100,0.00,,SKC,0.00,VWS V14.01,2013-05-31 11:15:00,
2013-05-31 07:16:00,76.4,76.4,30.01,SSE,167,5.3,19.0,100,0.00,,SKC,0.00,VWS V14.01,2013-05-31 11:16:00,
2013-05-31 07:17:00,76.3,76.3,30.01,SSW,200,5.7,19.0,100,0.00,,SKC,0.00,VWS V14.01,2013-05-31 11:17:00,
2013-05-31 07:19:00,76.3,76.3,30.02,North,359,1.0,19.0,100,0.00,,SKC,0.00,VWS V14.01,2013-05-31 11:19:00,
2013-05-31 07:20:00,76.3,76.3,30.02,WSW,246,4.1,19.0,100,0.00,,SKC,0.00,VWS V14.01,2013-05-31 11:20:00,
2013-05-31 07:21:00,76.2,76.2,30.02,South,176,6.9,19.0,100,0.00,,SKC,0.00,VWS V14.01,2013-05-31 11:21:00,
2013-05-31 07:22:00,76.2,76.2,30.02,SSW,207,6.3,19.0,100,0.00,,SKC,0.00,VWS V14.01,2013-05-31 11:22:00,
2013-05-31 07:24:00,76.2,76.2,30.02,South,173,4.2,19.0,100,0.00,,SKC,0.00,VWS V14.01,2013-05-31 11:24:00,
2013-05-31 07:25:00,76.2,76.2,30.02,SSW,195,6.8,19.0,100,0.00,,SKC,0.00,VWS V14.01,2013-05-31 11:25:00,
2013-05-31 07:26:00,76.2,76.2,30.02,SSW,212,6.8,19.0,100,0.00,,SKC,0.00,VWS V14.01,2013-05-31 11:26:00,
2013-05-31 07:27:00,76.2,76.2,30.01,SW,232,0.0,19.0,100,0.00,,SKC,0.00,VWS V14.01,2013-05-31 11:27:00,
2013-05-31 07:29:00,76.2,76.2,30.02,South,172,0.0,19.0,100,0.00,,SKC,0.00,VWS V14.01,2013-05-31 11:29:00,
2013-05-31 07:30:00,76.2,76.2,30.01,SSW,210,1.9,19.0,100,0.00,,SKC,0.00,VWS V14.01,2013-05-31 11:30:00,
2013-05-31 07:31:00,76.2,76.1,30.02,South,181,5.5,19.0,100,0.00,,SKC,0.00,VWS V14.01,2013-05-31 11:31:00,
2013-05-31 07:32:00,76.2,76.2,30.02,SSW,210,9.1,19.0,100,0.00,,SKC,0.00,VWS V14.01,2013-05-31 11:32:00,
2013-05-31 07:34:00,76.2,76.2,30.02,SSW,207,7.6,19.0,100,0.00,,SKC,0.00,VWS V14.01,2013-05-31 11:34:00,
2013-05-31 07:35:00,76.3,76.3,30.02,SSW,195,1.3,19.0,100,0.00,,SKC,0.00,VWS V14.01,2013-05-31 11:35:00,
2013-05-31 07:36:00,76.3,76.3,30.02,SW,228,3.4,19.0,100,0.00,,SKC,0.00,VWS V14.01,2013-05-31 11:36:00,
2013-05-31 07:38:00,76.3,76.3,30.02,North,359,0.7,19.0,100,0.00,,SKC,0.00,VWS V14.01,2013-05-31 11:38:00,
2013-05-31 07:39:00,76.3,76.3,30.02,SSW,194,0.6,19.0,100,0.00,,SKC,0.00,VWS V14.01,2013-05-31 11:39:00,
2013-05-31 07:40:00,76.3,76.3,30.02,SSW,205,3.9,19.0,100,0.00,,SKC,0.00,VWS V14.01,2013-05-31 11:40:00,
2013-05-31 07:41:00,76.2,76.3,30.02,SW,228,4.7,19.0,100,0.00,,SKC,0.00,VWS V14.01,2013-05-31 11:41:00,
2013-05-31 07:43:00,76.2,76.2,30.02,SSW,204,0.0,19.0,100,0.00,,SKC,0.00,VWS V14.01,2013-05-31 11:43:00,
2013-05-31 07:44:00,76.3,76.2,30.02,SSE,160,0.0,19.0,100,0.00,,SKC,0.00,VWS V14.01,2013-05-31 11:44:00,
2013-05-31 07:45:00,76.2,76.2,30.02,North,359,1.0,19.0,100,0.00,,SKC,0.00,VWS V14.01,2013-05-31 11:45:00,
2013-05-31 07:46:00,76.3,76.3,30.02,South,180,5.0,19.0,100,0.00,,SKC,0.00,VWS V14.01,2013-05-31 11:46:00,
2013-05-31 07:48:00,76.3,76.3,30.02,SW,217,4.7,19.0,100,0.00,,SKC,0.00,VWS V14.01,2013-05-31 11:48:00,
2013-05-31 07:49:00,76.3,76.3,30.02,North,359,1.4,19.0,100,0.00,,SKC,0.00,VWS V14.01,2013-05-31 11:49:00,
2013-05-31 07:50:00,76.3,76.3,30.02,South,169,5.8,19.0,100,0.00,,SKC,0.00,VWS V14.01,2013-05-31 11:50:00,
2013-05-31 07:51:00,76.3,76.3,30.02,SSE,159,4.8,19.0,100,0.00,,SKC,0.00,VWS V14.01,2013-05-31 11:51:00,
2013-05-31 07:52:00,76.3,76.3,30.02,North,359,5.9,19.0,100,0.00,,SKC,0.00,VWS V14.01,2013-05-31 11:52:00,
2013-05-31 07:53:00,76.3,76.3,30.02,South,177,9.4,19.0,100,0.00,,SKC,0.00,VWS V14.01,2013-05-31 11:53:00,
2013-05-31 07:55:00,76.3,76.3,30.02,SSW,197,3.7,19.0,100,0.00,,SKC,0.00,VWS V14.01,2013-05-31 11:55:00,
2013-05-31 07:56:00,76.3,76.3,30.02,SW,235,10.0,19.0,100,0.00,,SKC,0.00,VWS V14.01,2013-05-31 11:56:00,
2013-05-31 07:57:00,76.3,76.3,30.02,SSW,194,4.0,19.0,100,0.00,,SKC,0.00,VWS V14.01,2013-05-31 11:57:00,
2013-05-31 07:59:00,76.3,76.3,30.02,SW,221,10.1,19.0,100,0.00,,SKC,0.00,VWS V14.01,2013-05-31 11:59:00,
2013-05-31 08:00:00,76.3,76.3,30.02,SSW,204,6.0,19.0,100,0.00,,SKC,0.00,VWS V14.01,2013-05-31 12:00:00,
2013-05-31 08:01:00,76.3,76.3,30.02,SSE,158,5.0,19.0,100,0.00,,SKC,0.00,VWS V14.01,2013-05-31 12:01:00,
2013-05-31 08:02:00,76.3,76.3,30.02,SSW,210,7.3,19.0,100,0.00,,SKC,0.00,VWS V14.01,2013-05-31 12:02:00,
2013-05-31 08:04:00,76.4,76.4,30.02,SSE,156,6.4,19.0,100,0.00,,SKC,0.00,VWS V14.01,2013-05-31 12:04:00,
2013-05-31 08:05:00,76.4,76.4,30.02,WSW,242,0.3,19.0,100,0.00,,SKC,0.00,VWS V14.01,2013-05-31 12:05:00,
2013-05-31 08:06:00,76.7,76.7,30.02,SSW,202,0.0,19.0,100,0.00,,SKC,0.00,VWS V14.01,2013-05-31 12:06:00,
2013-05-31 08:07:00,76.6,76.7,30.02,SW,228,0.9,19.0,100,0.00,,SKC,0.00,VWS V14.01,2013-05-31 12:07:00,
2013-05-31 08:09:00,76.8,76.8,30.02,SSW,194,0.8,19.0,100,0.00,,SKC,0.00,VWS V14.01,2013-05-31 12:09:00,
2013-05-31 08:10:00,76.7,76.7,30.02,South,177,4.3,19.0,100,0.00,,SKC,0.00,VWS V14.01,2013-05-31 12:10:00,
2013-05-31 08:11:00,76.8,76.8,30.02,SW,235,3.6,19.0,100,0.00,,SKC,0.00,VWS V14.01,2013-05-31 12:11:00,
2013-05-31 08:12:00,76.8,76.8,30.02,South,188,0.7,19.0,100,0.00,,SKC,0.00,VWS V14.01,2013-05-31 12:12:00,
2013-05-31 08:14:00,77.0,77.0,30.03,WSW,238,5.2,19.0,100,0.00,,SKC,0.00,VWS V14.01,2013-05-31 12:14:00,
2013-05-31 08:15:00,77.0,77.0,30.03,WSW,242,0.0,19.0,100,0.00,,SKC,0.00,VWS V14.01,2013-05-31 12:15:00,
2013-05-31 08:16:00,77.0,77.0,30.03,SE,127,7.7,19.0,100,0.00,,SKC,0.00,VWS V14.01,2013-05-31 12:16:00,
2013-05-31 08:17:00,77.0,77.0,30.03,WSW,239,1.7,19.0,100,0.00,,SKC,0.00,VWS V14.01,2013-05-31 12:17:00,
2013-05-31 08:19:00,77.0,77.0,30.03,SW,225,7.1,19.0,100,0.00,,SKC,0.00,VWS V14.01,2013-05-31 12:19:00,
2013-05-31 08:20:00,77.0,77.0,30.03,SSW,207,7.5,19.0,100,0.00,,SKC,0.00,VWS V14.01,2013-05-31 12:20:00,
2013-05-31 08:21:00,77.0,77.0,30.03,SW,224,0.8,19.0,100,0.00,,SKC,0.00,VWS V14.01,2013-05-31 12:21:00,
2013-05-31 08:22:00,77.1,77.1,30.03,SW,222,6.0,19.0,100,0.00,,SKC,0.00,VWS V14.01,2013-05-31 12:22:00,
2013-05-31 08:24:00,77.1,77.1,30.03,SW,233,4.1,19.0,100,0.00,,SKC,0.00,VWS V14.01,2013-05-31 12:24:00,
2013-05-31 08:25:00,77.2,77.2,30.03,WSW,240,0.7,19.0,100,0.00,,SKC,0.00,VWS V14.01,2013-05-31 12:25:00,
2013-05-31 08:26:00,77.1,77.1,30.03,South,183,9.4,19.0,100,0.00,,SKC,0.00,VWS V14.01,2013-05-31 12:26:00,
2013-05-31 08:27:00,77.2,77.2,30.03,SW,218,3.5,19.0,100,0.00,,SKC,0.00,VWS V14.01,2013-05-31 12:27:00,
2013-05-31 08:28:00,77.1,77.1,30.03,SSW,202,4.6,19.0,100,0.00,,SKC,0.00,VWS V14.01,2013-05-31 12:28:00,
2013-05-31 08:30:00,77.2,77.2,30.03,SW,236,0.0,19.0,100,0.00,,SKC,0.00,VWS V14.01,2013-05-31 12:30:00,
2013-05-31 08:31:00,77.2,77.2,30.03,South,191,2.2,19.0,100,0.00,,SKC,0.00,VWS V14.01,2013-05-31 12:31:00,
2013-05-31 08:32:00,77.1,77.1,30.03,SSW,197,8.8,19.0,100,0.00,,SKC,0.00,VWS V14.01,2013-05-31 12:32:00,
2013-05-31 08:33:00,77.1,77.1,30.03,SW,221,1.2,19.0,100,0.00,,SKC,0.00,VWS V14.01,2013-05-31 12:33:00,
2013-05-31 08:34:00,77.2,77.1,30.03,SSW,208,8.5,19.0,100,0.00,,SKC,0.00,VWS V14.01,2013-05-31 12:34:00,
2013-05-31 08:35:00,77.2,77.2,30.03,SSE,162,8.4,19.0,100,0.00,,SKC,0.00,VWS V14.01,2013-05-31 12:35:00,
2013-05-31 08:36:00,77.2,77.2,30.03,South,180,6.8,19.0,100,0.00,,SKC,0.00,VWS V14.01,2013-05-31 12:36:00,
2013-05-31 08:37:00,77.2,77.2,30.03,South,176,3.0,19.0,100,0.00,,SKC,0.00,VWS V14.01,2013-05-31 12:37:00,
2013-05-31 08:38:00,77.2,77.2,30.03,SW,229,6.0,19.0,100,0.00,,SKC,0.00,VWS V14.01,2013-05-31 12:38:00,
2013-05-31 08:39:00,77.3,77.3,30.04,North,359,0.0,19.0,100,0.00,,SKC,0.00,VWS V14.01,2013-05-31 12:39:00,
2013-05-31 08:40:00,77.3,77.3,30.03,SSW,197,3.4,19.0,100,0.00,,SKC,0.00,VWS V14.01,2013-05-31 12:40:00,
2013-05-31 08:41:00,77.4,77.3,30.03,SSE,159,6.5,19.0,100,0.00,,SKC,0.00,VWS V14.01,2013-05-31 12:41:00,
2013-05-31 08:42:00,77.4,77.4,30.03,SSW,205,7.3,19.0,100,0.00,,SKC,0.00,VWS V14.01,2013-05-31 12:42:00,
2013-05-31 08:43:00,77.4,77.4,30.03,SSE,167,7.0,19.0,100,0.00,,SKC,0.00,VWS V14.01,2013-05-31 12:43:00,
2013-05-31 08:44:00,77.4,77.4,30.03,SSW,195,0.0,19.0,100,0.00,,SKC,0.00,VWS V14.01,2013-05-31 12:44:00,
2013-05-31 08:46:00,77.3,77.3,30.03,WSW,240,0.0,19.0,100,0.00,,SKC,0.00,VWS V14.01,2013-05-31 12:46:00,
2013-05-31 08:48:00,77.3,77.3,30.03,SSW,208,0.0,19.0,100,0.00,,SKC,0.00,VWS V14.01,2013-05-31 12:48:00,
2013-05-31 08:50:00,77.3,77.3,30.03,WSW,238,5.7,19.0,100,0.00,,SKC,0.00,VWS V14.01,2013-05-31 12:50:00,
2013-05-31 08:51:00,77.2,77.2,30.03,SW,217,0.0,19.0,100,0.00,,SKC,0.00,VWS V14.01,2013-05-31 12:51:00,
2013-05-31 08:53:00,77.3,77.3,30.04,South,180,2.7,19.0,100,0.00,,SKC,0.00,VWS V14.01,2013-05-31 12:53:00,
2013-05-31 08:55:00,77.3,77.3,30.03,SSW,201,5.4,19.0,100,0.00,,SKC,0.00,VWS V14.01,2013-05-31 12:55:00,
2013-05-31 08:56:00,77.4,77.3,30.03,SSE,166,0.0,19.0,100,0.00,,SKC,0.00,VWS V14.01,2013-05-31 12:56:00,
2013-05-31 08:57:00,77.5,77.5,30.03,SSW,207,8.5,19.0,100,0.00,,SKC,0.00,VWS V14.01,2013-05-31 12:57:00,
2013-05-31 08:58:00,77.5,77.5,30.03,South,176,7.5,19.0,100,0.00,,SKC,0.00,VWS V14.01,2013-05-31 12:58:00,
2013-05-31 09:00:00,77.5,77.5,30.03,SW,226,5.0,19.0,100,0.00,,SKC,0.00,VWS V14.01,2013-05-31 13:00:00,
2013-05-31 09:01:00,77.7,77.7,30.03,SSW,193,4.8,19.0,100,0.00,,SKC,0.00,VWS V14.01,2013-05-31 13:01:00,
2013-05-31 09:02:00,77.8,77.8,30.03,SSW,200,5.8,19.0,100,0.00,,SKC,0.00,VWS V14.01,2013-05-31 13:02:00,
2013-05-31 09:03:00,77.8,77.8,30.03,SSW,197,6.6,19.0,100,0.00,,SKC,0.00,VWS V14.01,2013-05-31 13:03:00,
2013-05-31 09:05:00,77.9,77.9,30.04,North,359,0.0,19.0,100,0.00,,SKC,0.00,VWS V14.01,2013-05-31 13:05:00,
2013-05-31 09:06:00,78.0,78.0,30.04,North,359,2.2,19.0,100,0.00,,SKC,0.00,VWS V14.01,2013-05-31 13:06:00,
2013-05-31 09:07:00,78.0,78.0,30.04,SSW,210,9.3,19.0,100,0.00,,SKC,0.00,VWS V14.01,2013-05-31 13:07:00,
2013-05-31 09:08:00,78.0,78.0,30.04,South,186,6.7,19.0,100,0.00,,SKC,0.00,VWS V14.01,2013-05-31 13:08:00,
2013-05-31 09:10:00,78.0,78.0,30.05,North,359,3.5,19.0,100,0.00,,SKC,0.00,VWS V14.01,2013-05-31 13:10:00,
2013-05-31 09:11:00,77.9,77.9,30.04,North,359,4.6,19.0,100,0.00,,SKC,0.00,VWS V14.01,2013-05-31 13:11:00,
2013-05-31 09:12:00,78.0,78.0,30.05,South,184,0.0,19.0,100,0.00,,SKC,0.00,VWS V14.01,2013-05-31 13:12:00,
2013-05-31 09:13:00,78.0,78.0,30.05,SSW,201,8.3,19.0,100,0.00,,SKC,0.00,VWS V14.01,2013-05-31 13:13:00,
2013-05-31 09:14:00,78.0,78.0,30.05,SW,219,4.2,19.0,100,0.00,,SKC,0.00,VWS V14.01,2013-05-31 13:14:00,
2013-05-31 09:15:00,78.0,78.0,30.04,SW,219,0.7,19.0,100,0.00,,SKC,0.00,VWS V14.01,2013-05-31 13:15:00,
2013-05-31 09:17:00,78.1,78.1,30.05,North,359,4.8,19.0,100,0.00,,SKC,0.00,VWS V14.01,2013-05-31 13:17:00,
2013-05-31 09:18:00,78.1,78.1,30.05,North,359,6.3,19.0,100,0.00,,SKC,0.00,VWS V14.01,2013-05-31 13:18:00,
2013-05-31 09:19:00,78.2,78.2,30.05,North,359,0.0,19.0,100,0.00,,SKC,0.00,VWS V14.01,2013-05-31 13:19:00,
2013-05-31 09:20:00,78.1,78.1,30.05,North,359,7.7,19.0,100,0.00,,SKC,0.00,VWS V14.01,2013-05-31 13:20:00,
2013-05-31 09:22:00,78.1,78.1,30.05,South,183,4.0,19.0,100,0.00,,SKC,0.00,VWS V14.01,2013-05-31 13:22:00,
2013-05-31 09:24:00,78.3,78.3,30.05,SW,232,4.2,19.0,100,0.00,,SKC,0.00,VWS V14.01,2013-05-31 13:24:00,
2013-05-31 09:26:00,78.3,78.3,30.05,SSE,163,4.5,19.0,100,0.00,,SKC,0.00,VWS V14.01,2013-05-31 13:26:00,
2013-05-31 09:27:00,78.3,78.3,30.04,North,359,1.3,19.0,100,0.00,,SKC,0.00,VWS V14.01,2013-05-31 13:27:00,
2013-05-31 09:28:00,78.3,78.3,30.04,SW,215,4.5,19.0,100,0.00,,SKC,0.00,VWS V14.01,2013-05-31 13:28:00,
2013-05-31 09:29:00,78.2,78.2,30.04,South,190,7.3,19.0,100,0.00,,SKC,0.00,VWS V14.01,2013-05-31 13:29:00,
2013-05-31 09:31:00,78.2,78.1,30.04,SSW,204,5.0,19.0,100,0.00,,SKC,0.00,VWS V14.01,2013-05-31 13:31:00,
2013-05-31 09:32:00,78.2,78.2,30.04,South,183,2.9,19.0,100,0.00,,SKC,0.00,VWS V14.01,2013-05-31 13:32:00,
2013-05-31 09:34:00,78.2,78.2,30.04,North,359,0.2,19.0,100,0.00,,SKC,0.00,VWS V14.01,2013-05-31 13:34:00,
2013-05-31 09:35:00,78.2,78.2,30.04,WSW,246,0.7,19.0,100,0.00,,SKC,0.00,VWS V14.01,2013-05-31 13:35:00,
2013-05-31 09:36:00,78.2,78.2,30.04,SSW,194,0.3,19.0,100,0.00,,SKC,0.00,VWS V14.01,2013-05-31 13:36:00,
2013-05-31 09:37:00,78.3,78.3,30.04,SSE,162,7.3,19.0,100,0.00,,SKC,0.00,VWS V14.01,2013-05-31 13:37:00,
2013-05-31 09:39:00,78.4,78.4,30.04,South,186,5.3,19.0,100,0.00,,SKC,0.00,VWS V14.01,2013-05-31 13:39:00,
2013-05-31 09:40:00,78.3,78.3,30.05,South,184,0.0,19.0,100,0.00,,SKC,0.00,VWS V14.01,2013-05-31 13:40:00,
2013-05-31 09:41:00,78.4,78.4,30.05,North,359,0.9,19.0,100,0.00,,SKC,0.00,VWS V14.01,2013-05-31 13:41:00,
2013-05-31 09:42:00,78.4,78.4,30.05,SW,218,0.0,19.0,100,0.00,,SKC,0.00,VWS V14.01,2013-05-31 13:42:00,
2013-05-31 09:44:00,78.2,78.3,30.05,South,190,6.7,19.0,100,0.00,,SKC,0.00,VWS V14.01,2013-05-31 13:44:00,
2013-05-31 09:45:00,78.3,78.3,30.05,SW,231,6.6,19.0,100,0.00,,SKC,0.00,VWS V14.01,2013-05-31 13:45:00,
2013-05-31 09:46:00,78.3,78.3,30.04,South,176,6.2,19.0,100,0.00,,SKC,0.00,VWS V14.01,2013-05-31 13:46:00,
2013-05-31 09:47:00,78.3,78.3,30.04,South,174,6.8,19.0,100,0.00,,SKC,0.00,VWS V14.01,2013-05-31 13:47:00,
2013-05-31 09:49:00,78.5,78.5,30.04,SSW,194,5.7,19.0,100,0.00,,SKC,0.00,VWS V14.01,2013-05-31 13:49:00,
2013-05-31 09:50:00,78.7,78.7,30.04,South,177,8.5,19.0,100,0.00,,SKC,0.00,VWS V14.01,2013-05-31 13:50:00,
2013-05-31 09:51:00,78.7,78.7,30.05,South,173,7.1,19.0,100,0.00,,SKC,0.00,VWS V14.01,2013-05-31 13:51:00,
2013-05-31 09:53:00,78.8,78.8,30.04,SSW,198,6.5,19.0,100,0.00,,SKC,0.00,VWS V14.01,2013-05-31 13:53:00,
2013-05-31 09:54:00,78.9,78.9,30.05,SSE,160,9.3,19.0,100,0.00,,SKC,0.00,VWS V14.01,2013-05-31 13:54:00,
2013-05-31 09:55:00,78.9,78.9,30.05,SSE,152,8.1,19.0,100,0.00,,SKC,0.00,VWS V14.01,2013-05-31 13:55:00,
2013-05-31 09:56:00,78.9,78.9,30.05,SSE,166,2.0,19.0,100,0.00,,SKC,0.00,VWS V14.01,2013-05-31 13:56:00,
2013-05-31 09:58:00,79.1,79.0,30.04,WSW,248,5.8,19.0,100,0.00,,SKC,0.00,VWS V14.01,2013-05-31 13:58:00,
2013-05-31 09:59:00,79.1,79.1,30.05,SW,228,2.9,19.0,100,0.00,,SKC,0.00,VWS V14.01,2013-05-31 13:59:00,
2013-05-31 10:01:00,79.1,79.1,30.05,SSW,212,5.1,19.0,100,0.00,,SKC,0.00,VWS V14.01,2013-05-31 14:01:00,
2013-05-31 10:03:00,79.1,79.1,30.05,SW,218,0.7,19.0,100,0.00,,SKC,0.00,VWS V14.01,2013-05-31 14:03:00,
2013-05-31 10:04:00,79.2,79.2,30.05,SSE,162,7.0,19.0,100,0.00,,SKC,0.00,VWS V14.01,2013-05-31 14:04:00,
2013-05-31 10:05:00,79.2,79.2,30.05,South,191,2.3,19.0,100,0.00,,SKC,0.00,VWS V14.01,2013-05-31 14:05:00,
2013-05-31 10:06:00,79.2,79.2,30.05,SE,146,8.6,19.0,100,0.00,,SKC,0.00,VWS V14.01,2013-05-31 14:06:00,
2013-05-31 10:07:00,79.3,79.3,30.05,SSE,156,3.2,19.0,100,0.00,,SKC,0.00,VWS V14.01,2013-05-31 14:07:00,
2013-05-31 10:08:00,79.4,79.4,30.05,South,170,5.0,19.0,100,0.00,,SKC,0.00,VWS V14.01,2013-05-31 14:08:00,
2013-05-31 10:09:00,79.4,79.4,30.05,SSW,212,7.5,19.0,100,0.00,,SKC,0.00,VWS V14.01,2013-05-31 14:09:00,
2013-05-31 10:10:00,79.4,79.4,30.05,South,176,4.2,19.0,100,0.00,,SKC,0.00,VWS V14.01,2013-05-31 14:10:00,
2013-05-31 10:11:00,79.5,79.7,30.05,SW,215,3.5,19.0,100,0.00,,SKC,0.00,VWS V14.01,2013-05-31 14:11:00,
2013-05-31 10:12:00,79.7,79.7,30.05,WSW,245,5.2,19.0,100,0.00,,SKC,0.00,VWS V14.01,2013-05-31 14:12:00,
2013-05-31 10:13:00,79.7,79.7,30.05,SSE,156,6.3,19.0,100,0.00,,SKC,0.00,VWS V14.01,2013-05-31 14:13:00,
2013-05-31 10:14:00,79.8,79.8,30.05,South,190,2.8,19.0,100,0.00,,SKC,0.00,VWS V14.01,2013-05-31 14:14:00,
2013-05-31 10:15:00,79.8,79.8,30.05,SSE,162,5.7,19.0,100,0.00,,SKC,0.00,VWS V14.01,2013-05-31 14:15:00,
2013-05-31 10:16:00,79.7,79.8,30.05,South,184,6.2,19.0,100,0.00,,SKC,0.00,VWS V14.01,2013-05-31 14:16:00,
2013-05-31 10:17:00,79.8,79.8,30.05,South,173,4.7,19.0,100,0.00,,SKC,0.00,VWS V14.01,2013-05-31 14:17:00,
2013-05-31 10:18:00,79.7,79.7,30.05,WSW,238,2.4,19.0,100,0.00,,SKC,0.00,VWS V14.01,2013-05-31 14:18:00,
2013-05-31 10:19:00,79.8,79.8,30.05,SSE,162,2.6,19.0,100,0.00,,SKC,0.00,VWS V14.01,2013-05-31 14:19:00,
2013-05-31 10:20:00,79.8,79.8,30.05,South,186,10.6,19.0,100,0.00,,SKC,0.00,VWS V14.01,2013-05-31 14:20:00,
2013-05-31 10:22:00,79.8,79.8,30.05,South,174,0.8,19.0,100,0.00,,SKC,0.00,VWS V14.01,2013-05-31 14:22:00,
2013-05-31 10:24:00,79.9,79.9,30.05,SSW,200,1.6,19.0,100,0.00,,SKC,0.00,VWS V14.01,2013-05-31 14:24:00,
2013-05-31 10:25:00,79.9,79.9,30.05,SSW,211,8.8,19.0,100,0.00,,SKC,0.00,VWS V14.01,2013-05-31 14:25:00,
2013-05-31 10:27:00,79.9,79.9,30.05,South,183,7.1,19.0,100,0.00,,SKC,0.00,VWS V14.01,2013-05-31 14:27:00,
2013-05-31 10:29:00,80.0,80.0,30.05,North,359,1.9,19.0,100,0.00,,SKC,0.00,VWS V14.01,2013-05-31 14:29:00,
2013-05-31 10:30:00,80.0,80.0,30.05,SSW,207,4.6,19.0,100,0.00,,SKC,0.00,VWS V14.01,2013-05-31 14:30:00,
2013-05-31 10:32:00,80.0,80.0,30.05,North,359,0.0,19.0,100,0.00,,SKC,0.00,VWS V14.01,2013-05-31 14:32:00,
2013-05-31 10:34:00,79.9,79.9,30.05,North,359,0.0,19.0,100,0.00,,SKC,0.00,VWS V14.01,2013-05-31 14:34:00,
2013-05-31 10:35:00,79.8,79.8,30.05,SSW,200,0.0,19.0,100,0.00,,SKC,0.00,VWS V14.01,2013-05-31 14:35:00,
2013-05-31 10:37:00,79.8,79.8,30.05,SSW,212,6.9,19.0,100,0.00,,SKC,0.00,VWS V14.01,2013-05-31 14:37:00,
2013-05-31 10:39:00,79.9,79.9,30.05,North,359,0.7,19.0,100,0.00,,SKC,0.00,VWS V14.01,2013-05-31 14:39:00,
2013-05-31 10:40:00,79.9,79.9,30.05,SSW,195,5.3,19.0,100,0.00,,SKC,0.00,VWS V14.01,2013-05-31 14:40:00,
2013-05-31 10:42:00,80.0,80.0,30.05,SSW,205,0.0,19.0,100,0.00,,SKC,0.00,VWS V14.01,2013-05-31 14:42:00,
2013-05-31 10:44:00,79.8,79.8,30.05,SW,224,6.2,19.0,100,0.00,,SKC,0.00,VWS V14.01,2013-05-31 14:44:00,
2013-05-31 10:45:00,79.8,79.8,30.04,SSE,159,8.0,19.0,100,0.00,,SKC,0.00,VWS V14.01,2013-05-31 14:45:00,
2013-05-31 10:47:00,79.8,79.8,30.04,SW,229,1.7,19.0,100,0.00,,SKC,0.00,VWS V14.01,2013-05-31 14:47:00,
2013-05-31 10:50:00,79.5,79.7,30.04,SSW,197,3.1,19.0,100,0.00,,SKC,0.00,VWS V14.01,2013-05-31 14:50:00,
2013-05-31 10:51:00,79.7,79.7,30.04,SW,222,0.0,19.0,100,0.00,,SKC,0.00,VWS V14.01,2013-05-31 14:51:00,
2013-05-31 10:52:00,79.8,79.8,30.05,SSW,197,5.7,19.0,100,0.00,,SKC,0.00,VWS V14.01,2013-05-31 14:52:00,
2013-05-31 10:55:00,80.0,80.0,30.05,North,359,0.0,19.0,100,0.00,,SKC,0.00,VWS V14.01,2013-05-31 14:55:00,
2013-05-31 10:56:00,79.9,79.9,30.05,North,359,0.0,19.0,100,0.00,,SKC,0.00,VWS V14.01,2013-05-31 14:56:00,
2013-05-31 10:57:00,79.9,79.9,30.05,North,359,0.0,19.0,100,0.00,,SKC,0.00,VWS V14.01,2013-05-31 14:57:00,
2013-05-31 11:00:00,79.9,79.9,30.04,South,180,6.1,19.0,100,0.00,,SKC,0.00,VWS V14.01,2013-05-31 15:00:00,
2013-05-31 11:01:00,79.9,79.9,30.05,South,188,0.0,19.0,100,0.00,,SKC,0.00,VWS V14.01,2013-05-31 15:01:00,
2013-05-31 11:02:00,79.9,79.9,30.05,SW,215,0.0,19.0,100,0.00,,SKC,0.00,VWS V14.01,2013-05-31 15:02:00,
2013-05-31 11:03:00,79.9,79.9,30.05,SW,215,0.5,19.0,100,0.00,,SKC,0.00,VWS V14.01,2013-05-31 15:03:00,
2013-05-31 11:05:00,79.8,79.8,30.05,SSW,212,5.3,19.0,100,0.00,,SKC,0.00,VWS V14.01,2013-05-31 15:05:00,
2013-05-31 11:06:00,79.8,79.8,30.05,South,184,3.0,19.0,100,0.00,,SKC,0.00,VWS V14.01,2013-05-31 15:06:00,
2013-05-31 11:08:00,79.4,79.4,30.04,SSW,194,3.0,19.0,100,0.00,,SKC,0.00,VWS V14.01,2013-05-31 15:08:00,
2013-05-31 11:10:00,79.2,79.2,30.04,North,359,0.0,19.0,100,0.00,,SKC,0.00,VWS V14.01,2013-05-31 15:10:00,
2013-05-31 11:11:00,79.2,79.2,30.04,North,359,0.0,19.0,100,0.00,,SKC,0.00,VWS V14.01,2013-05-31 15:11:00,
2013-05-31 11:13:00,79.3,79.3,30.04,North,359,0.0,19.0,100,0.00,,SKC,0.00,VWS V14.01,2013-05-31 15:13:00,
2013-05-31 11:15:00,79.8,79.8,30.05,North,359,2.4,19.0,100,0.00,,SKC,0.00,VWS V14.01,2013-05-31 15:15:00,
2013-05-31 11:16:00,79.8,79.8,30.05,WSW,238,7.1,19.0,100,0.00,,SKC,0.00,VWS V14.01,2013-05-31 15:16:00,
2013-05-31 11:18:00,79.9,79.9,30.05,South,186,0.6,19.0,100,0.00,,SKC,0.00,VWS V14.01,2013-05-31 15:18:00,
2013-05-31 11:21:00,80.1,80.1,30.04,WSW,243,0.4,19.0,100,0.00,,SKC,0.00,VWS V14.01,2013-05-31 15:21:00,
2013-05-31 11:23:00,80.0,80.0,30.04,SSW,208,3.9,19.0,100,0.00,,SKC,0.00,VWS V14.01,2013-05-31 15:23:00,
2013-05-31 11:26:00,79.9,79.9,30.04,SSW,205,2.7,19.0,100,0.00,,SKC,0.00,VWS V14.01,2013-05-31 15:26:00,
2013-05-31 11:27:00,79.9,79.9,30.04,SSW,207,0.6,19.0,100,0.00,,SKC,0.00,VWS V14.01,2013-05-31 15:27:00,
2013-05-31 11:28:00,79.9,79.9,30.04,South,188,10.8,19.0,100,0.00,,SKC,0.00,VWS V14.01,2013-05-31 15:28:00,
2013-05-31 11:29:00,79.9,79.9,30.04,SW,232,7.5,19.0,100,0.00,,SKC,0.00,VWS V14.01,2013-05-31 15:29:00,
2013-05-31 11:31:00,80.0,80.0,30.04,North,359,0.9,19.0,100,0.00,,SKC,0.00,VWS V14.01,2013-05-31 15:31:00,
2013-05-31 11:32:00,80.0,80.0,30.04,North,359,0.0,19.0,100,0.00,,SKC,0.00,VWS V14.01,2013-05-31 15:32:00,
2013-05-31 11:34:00,80.0,80.0,30.04,North,359,1.6,19.0,100,0.00,,SKC,0.00,VWS V14.01,2013-05-31 15:34:00,
2013-05-31 11:36:00,80.0,80.0,30.04,SSW,211,0.0,19.0,100,0.00,,SKC,0.00,VWS V14.01,2013-05-31 15:36:00,
2013-05-31 11:37:00,80.0,80.0,30.04,SSW,211,1.7,19.0,100,0.00,,SKC,0.00,VWS V14.01,2013-05-31 15:37:00,
2013-05-31 11:39:00,80.1,80.1,30.04,South,187,5.8,19.0,100,0.00,,SKC,0.00,VWS V14.01,2013-05-31 15:39:00,
2013-05-31 11:41:00,80.3,80.3,30.04,South,190,2.8,19.0,100,0.00,,SKC,0.00,VWS V14.01,2013-05-31 15:41:00,
2013-05-31 11:42:00,80.4,80.4,30.04,South,177,7.1,19.0,100,0.00,,SKC,0.00,VWS V14.01,2013-05-31 15:42:00,
2013-05-31 11:44:00,80.4,80.4,30.04,South,187,1.9,19.0,100,0.00,,SKC,0.00,VWS V14.01,2013-05-31 15:44:00,
2013-05-31 11:46:00,80.3,80.3,30.04,SSE,159,0.0,19.0,100,0.00,,SKC,0.00,VWS V14.01,2013-05-31 15:46:00,
2013-05-31 11:47:00,80.4,80.4,30.04,SSE,159,0.0,19.0,100,0.00,,SKC,0.00,VWS V14.01,2013-05-31 15:47:00,
2013-05-31 11:50:00,80.5,80.4,30.04,South,191,7.0,19.0,100,0.00,,SKC,0.00,VWS V14.01,2013-05-31 15:50:00,
2013-05-31 11:51:00,80.6,80.4,30.04,South,174,0.9,19.0,100,0.00,,SKC,0.00,VWS V14.01,2013-05-31 15:51:00,
2013-05-31 11:52:00,80.5,80.4,30.04,South,170,6.5,19.0,100,0.00,,SKC,0.00,VWS V14.01,2013-05-31 15:52:00,
2013-05-31 11:55:00,80.8,80.6,30.04,South,188,0.0,19.0,100,0.00,,SKC,0.00,VWS V14.01,2013-05-31 15:55:00,
2013-05-31 11:56:00,80.7,80.5,30.04,South,172,0.0,19.0,99,0.00,,SKC,0.00,VWS V14.01,2013-05-31 15:56:00,
2013-05-31 11:57:00,80.6,80.6,30.04,SSW,194,0.5,19.0,100,0.00,,SKC,0.00,VWS V14.01,2013-05-31 15:57:00,
2013-05-31 12:00:00,80.4,80.4,30.04,North,359,0.0,19.0,100,0.00,,SKC,0.00,VWS V14.01,2013-05-31 16:00:00,
2013-05-31 12:01:00,80.5,80.5,30.04,North,359,0.0,19.0,100,0.00,,SKC,0.00,VWS V14.01,2013-05-31 16:01:00,
2013-05-31 12:02:00,80.5,80.5,30.04,SW,224,8.2,19.0,100,0.00,,SKC,0.00,VWS V14.01,2013-05-31 16:02:00,
2013-05-31 12:05:00,80.6,80.6,30.04,SSW,205,4.7,19.0,100,0.00,,SKC,0.00,VWS V14.01,2013-05-31 16:05:00,
2013-05-31 12:06:00,80.6,80.6,30.04,SSW,200,6.1,19.0,100,0.00,,SKC,0.00,VWS V14.01,2013-05-31 16:06:00,
2013-05-31 12:07:00,80.6,80.6,30.03,North,359,7.5,19.0,100,0.00,,SKC,0.00,VWS V14.01,2013-05-31 16:07:00,
2013-05-31 12:10:00,80.6,80.6,30.04,South,177,0.0,19.0,100,0.00,,SKC,0.00,VWS V14.01,2013-05-31 16:10:00,
2013-05-31 12:11:00,80.7,80.7,30.04,SSW,208,0.0,19.0,100,0.00,,SKC,0.00,VWS V14.01,2013-05-31 16:11:00,
2013-05-31 12:12:00,80.7,80.7,30.04,SSW,208,4.2,19.0,100,0.00,,SKC,0.00,VWS V14.01,2013-05-31 16:12:00,
2013-05-31 12:13:00,80.7,80.8,30.04,North,359,2.4,19.0,100,0.00,,SKC,0.00,VWS V14.01,2013-05-31 16:13:00,
2013-05-31 12:15:00,80.7,80.7,30.04,North,359,0.2,19.0,100,0.00,,SKC,0.00,VWS V14.01,2013-05-31 16:15:00,
2013-05-31 12:16:00,80.4,80.4,30.04,South,188,1.1,19.0,100,0.00,,SKC,0.00,VWS V14.01,2013-05-31 16:16:00,
2013-05-31 12:17:00,80.3,80.3,30.04,North,359,0.0,19.0,100,0.00,,SKC,0.00,VWS V14.01,2013-05-31 16:17:00,
2013-05-31 12:18:00,80.4,80.4,30.04,South,188,8.2,19.0,100,0.00,,SKC,0.00,VWS V14.01,2013-05-31 16:18:00,
2013-05-31 12:20:00,80.3,80.3,30.04,SSW,205,6.2,19.0,100,0.00,,SKC,0.00,VWS V14.01,2013-05-31 16:20:00,
2013-05-31 12:21:00,80.3,80.3,30.04,SSW,194,4.9,19.0,100,0.00,,SKC,0.00,VWS V14.01,2013-05-31 16:21:00,
2013-05-31 12:22:00,80.3,80.3,30.04,SSW,211,8.5,19.0,100,0.00,,SKC,0.00,VWS V14.01,2013-05-31 16:22:00,
2013-05-31 12:23:00,80.4,80.4,30.04,South,181,0.0,19.0,100,0.00,,SKC,0.00,VWS V14.01,2013-05-31 16:23:00,
2013-05-31 12:26:00,80.2,80.2,30.04,SSW,197,0.0,19.0,100,0.00,,SKC,0.00,VWS V14.01,2013-05-31 16:26:00,
2013-05-31 12:27:00,80.0,80.0,30.04,South,186,0.0,19.0,100,0.00,,SKC,0.00,VWS V14.01,2013-05-31 16:27:00,
2013-05-31 12:28:00,79.9,79.9,30.04,North,359,5.0,19.0,100,0.00,,SKC,0.00,VWS V14.01,2013-05-31 16:28:00,
2013-05-31 12:31:00,79.7,79.7,30.04,SSW,205,0.0,19.0,100,0.00,,SKC,0.00,VWS V14.01,2013-05-31 16:31:00,
2013-05-31 12:32:00,79.7,79.7,30.04,North,359,0.0,19.0,100,0.00,,SKC,0.00,VWS V14.01,2013-05-31 16:32:00,
2013-05-31 12:33:00,79.7,79.7,30.04,South,190,0.0,19.0,100,0.00,,SKC,0.00,VWS V14.01,2013-05-31 16:33:00,
2013-05-31 12:36:00,79.9,79.9,30.04,SSW,195,0.0,19.0,100,0.00,,SKC,0.00,VWS V14.01,2013-05-31 16:36:00,
2013-05-31 12:37:00,79.9,79.9,30.04,SSW,195,0.0,19.0,100,0.00,,SKC,0.00,VWS V14.01,2013-05-31 16:37:00,
2013-05-31 12:38:00,80.1,80.1,30.04,North,359,0.0,19.0,100,0.00,,SKC,0.00,VWS V14.01,2013-05-31 16:38:00,
2013-05-31 12:41:00,80.2,80.2,30.04,SSW,200,0.0,19.0,100,0.00,,SKC,0.00,VWS V14.01,2013-05-31 16:41:00,
2013-05-31 12:42:00,80.3,80.3,30.04,SSW,200,0.0,19.0,100,0.00,,SKC,0.00,VWS V14.01,2013-05-31 16:42:00,
2013-05-31 12:43:00,80.3,80.3,30.04,SSW,208,0.0,19.0,100,0.00,,SKC,0.00,VWS V14.01,2013-05-31 16:43:00,
2013-05-31 12:46:00,80.4,80.4,30.04,SSW,200,0.0,19.0,100,0.00,,SKC,0.00,VWS V14.01,2013-05-31 16:46:00,
2013-05-31 12:47:00,80.4,80.4,30.04,SSW,200,0.0,19.0,100,0.00,,SKC,0.00,VWS V14.01,2013-05-31 16:47:00,
2013-05-31 12:49:00,80.3,80.3,30.04,SW,232,4.1,19.0,100,0.00,,SKC,0.00,VWS V14.01,2013-05-31 16:49:00,
2013-05-31 12:51:00,80.2,80.2,30.04,SW,217,0.0,19.0,100,0.00,,SKC,0.00,VWS V14.01,2013-05-31 16:51:00,
2013-05-31 12:52:00,80.3,80.3,30.04,South,173,5.9,19.0,100,0.00,,SKC,0.00,VWS V14.01,2013-05-31 16:52:00,
2013-05-31 12:53:00,80.2,80.2,30.04,SW,224,0.0,19.0,100,0.00,,SKC,0.00,VWS V14.01,2013-05-31 16:53:00,
2013-05-31 12:54:00,80.3,80.3,30.04,North,359,8.5,19.0,100,0.00,,SKC,0.00,VWS V14.01,2013-05-31 16:54:00,
2013-05-31 12:56:00,80.2,80.2,30.04,SW,232,0.4,19.0,100,0.00,,SKC,0.00,VWS V14.01,2013-05-31 16:56:00,
2013-05-31 12:57:00,80.3,80.3,30.04,SW,232,2.8,19.0,100,0.00,,SKC,0.00,VWS V14.01,2013-05-31 16:57:00,
2013-05-31 12:58:00,80.3,80.3,30.04,SW,232,0.0,19.0,100,0.00,,SKC,0.00,VWS V14.01,2013-05-31 16:58:00,
2013-05-31 12:59:00,80.4,80.4,30.04,SSW,200,7.1,19.0,100,0.00,,SKC,0.00,VWS V14.01,2013-05-31 16:59:00,
2013-05-31 13:01:00,80.3,80.3,30.04,North,359,7.0,19.0,100,0.00,,SKC,0.00,VWS V14.01,2013-05-31 17:01:00,
2013-05-31 13:02:00,80.2,80.2,30.04,South,184,6.6,19.0,100,0.00,,SKC,0.00,VWS V14.01,2013-05-31 17:02:00,
2013-05-31 13:03:00,80.2,80.2,30.04,SW,235,6.0,19.0,100,0.00,,SKC,0.00,VWS V14.01,2013-05-31 17:03:00,
2013-05-31 13:04:00,80.0,80.0,30.03,North,359,0.0,19.0,100,0.00,,SKC,0.00,VWS V14.01,2013-05-31 17:04:00,
2013-05-31 13:06:00,80.0,80.0,30.04,SSE,167,0.2,19.0,100,0.00,,SKC,0.00,VWS V14.01,2013-05-31 17:06:00,
2013-05-31 13:07:00,79.9,79.9,30.04,North,359,0.3,19.0,100,0.00,,SKC,0.00,VWS V14.01,2013-05-31 17:07:00,
2013-05-31 13:08:00,79.9,79.9,30.04,South,186,6.0,19.0,100,0.00,,SKC,0.00,VWS V14.01,2013-05-31 17:08:00,
2013-05-31 13:09:00,79.8,79.8,30.04,SW,221,0.5,19.0,100,0.00,,SKC,0.00,VWS V14.01,2013-05-31 17:09:00,
2013-05-31 13:11:00,79.9,79.9,30.04,North,359,4.3,19.0,100,0.00,,SKC,0.00,VWS V14.01,2013-05-31 17:11:00,
2013-05-31 13:12:00,80.0,80.0,30.03,South,179,4.7,19.0,100,0.00,,SKC,0.00,VWS V14.01,2013-05-31 17:12:00,
2013-05-31 13:13:00,80.0,80.0,30.03,South,170,7.0,19.0,100,0.00,,SKC,0.00,VWS V14.01,2013-05-31 17:13:00,
2013-05-31 13:15:00,80.0,80.0,30.04,SW,224,0.2,19.0,100,0.00,,SKC,0.00,VWS V14.01,2013-05-31 17:15:00,
2013-05-31 13:16:00,80.1,80.1,30.04,SSW,198,0.0,19.0,100,0.00,,SKC,0.00,VWS V14.01,2013-05-31 17:16:00,
2013-05-31 13:18:00,80.2,80.2,30.04,SSW,198,0.0,19.0,100,0.00,,SKC,0.00,VWS V14.01,2013-05-31 17:18:00,
2013-05-31 13:20:00,80.2,80.2,30.03,SSW,198,0.0,19.0,100,0.00,,SKC,0.00,VWS V14.01,2013-05-31 17:20:00,
2013-05-31 13:22:00,80.2,80.2,30.04,SSW,208,0.0,19.0,100,0.00,,SKC,0.00,VWS V14.01,2013-05-31 17:22:00,
2013-05-31 13:23:00,80.2,80.2,30.04,SSW,200,7.0,19.0,100,0.00,,SKC,0.00,VWS V14.01,2013-05-31 17:23:00,
2013-05-31 13:25:00,80.3,80.3,30.03,SW,215,3.9,19.0,100,0.00,,SKC,0.00,VWS V14.01,2013-05-31 17:25:00,
2013-05-31 13:27:00,80.3,80.3,30.03,SW,226,0.2,19.0,100,0.00,,SKC,0.00,VWS V14.01,2013-05-31 17:27:00,
2013-05-31 13:28:00,80.4,80.4,30.04,South,176,0.9,19.0,100,0.00,,SKC,0.00,VWS V14.01,2013-05-31 17:28:00,
2013-05-31 13:30:00,80.4,80.4,30.03,SSW,198,9.2,19.0,100,0.00,,SKC,0.00,VWS V14.01,2013-05-31 17:30:00,
2013-05-31 13:32:00,80.4,80.4,30.03,South,174,9.4,19.0,100,0.00,,SKC,0.00,VWS V14.01,2013-05-31 17:32:00,
2013-05-31 13:33:00,80.3,80.3,30.03,South,170,3.3,19.0,100,0.00,,SKC,0.00,VWS V14.01,2013-05-31 17:33:00,
2013-05-31 13:34:00,80.5,80.5,30.03,SSW,202,4.9,19.0,100,0.00,,SKC,0.00,VWS V14.01,2013-05-31 17:34:00,
2013-05-31 13:35:00,80.6,80.6,30.04,SW,214,0.9,19.0,100,0.00,,SKC,0.00,VWS V14.01,2013-05-31 17:35:00,
2013-05-31 13:37:00,80.6,80.6,30.04,North,359,4.9,19.0,100,0.00,,SKC,0.00,VWS V14.01,2013-05-31 17:37:00,
2013-05-31 13:38:00,80.7,80.7,30.04,SSW,205,0.0,19.0,100,0.00,,SKC,0.00,VWS V14.01,2013-05-31 17:38:00,
2013-05-31 13:39:00,80.7,80.7,30.04,SSW,195,6.2,19.0,100,0.00,,SKC,0.00,VWS V14.01,2013-05-31 17:39:00,
2013-05-31 13:40:00,80.7,80.7,30.04,North,359,0.0,19.0,100,0.00,,SKC,0.00,VWS V14.01,2013-05-31 17:40:00,
2013-05-31 13:42:00,80.7,80.7,30.04,South,184,7.3,19.0,100,0.00,,SKC,0.00,VWS V14.01,2013-05-31 17:42:00,
2013-05-31 13:43:00,80.8,80.8,30.04,South,186,0.0,19.0,100,0.00,,SKC,0.00,VWS V14.01,2013-05-31 17:43:00,
2013-05-31 13:44:00,80.8,80.8,30.04,SW,218,8.5,19.0,100,0.00,,SKC,0.00,VWS V14.01,2013-05-31 17:44:00,
2013-05-31 13:45:00,80.8,80.8,30.04,North,359,0.0,19.0,100,0.00,,SKC,0.00,VWS V14.01,2013-05-31 17:45:00,
2013-05-31 13:47:00,80.9,80.9,30.04,South,177,0.0,19.0,100,0.00,,SKC,0.00,VWS V14.01,2013-05-31 17:47:00,
2013-05-31 13:49:00,80.9,80.9,30.04,North,359,0.7,19.0,100,0.00,,SKC,0.00,VWS V14.01,2013-05-31 17:49:00,
2013-05-31 13:50:00,80.8,80.8,30.04,SSW,207,5.7,19.0,100,0.00,,SKC,0.00,VWS V14.01,2013-05-31 17:50:00,
2013-05-31 13:52:00,80.7,80.7,30.04,South,187,0.8,19.0,100,0.00,,SKC,0.00,VWS V14.01,2013-05-31 17:52:00,
2013-05-31 13:54:00,80.5,80.5,30.04,SSW,201,4.9,19.0,100,0.00,,SKC,0.00,VWS V14.01,2013-05-31 17:54:00,
2013-05-31 13:56:00,80.4,80.4,30.04,South,191,2.4,19.0,100,0.00,,SKC,0.00,VWS V14.01,2013-05-31 17:56:00,
2013-05-31 13:57:00,80.6,80.6,30.04,SSW,210,4.6,19.0,100,0.00,,SKC,0.00,VWS V14.01,2013-05-31 17:57:00,
2013-05-31 13:59:00,80.5,80.5,30.04,North,359,0.4,19.0,100,0.00,,SKC,0.00,VWS V14.01,2013-05-31 17:59:00,
2013-05-31 14:00:00,80.5,80.5,30.04,North,359,0.0,19.0,100,0.00,,SKC,0.00,VWS V14.01,2013-05-31 18:00:00,
2013-05-31 14:01:00,80.5,80.5,30.04,SSE,153,0.0,19.0,100,0.00,,SKC,0.00,VWS V14.01,2013-05-31 18:01:00,
2013-05-31 14:03:00,80.4,80.4,30.04,North,359,10.1,19.0,100,0.00,,SKC,0.00,VWS V14.01,2013-05-31 18:03:00,
2013-05-31 14:04:00,80.4,80.4,30.03,North,359,0.2,19.0,100,0.00,,SKC,0.00,VWS V14.01,2013-05-31 18:04:00,
2013-05-31 14:05:00,80.4,80.3,30.03,SW,218,4.8,19.0,100,0.00,,SKC,0.00,VWS V14.01,2013-05-31 18:05:00,
2013-05-31 14:06:00,80.4,80.4,30.04,North,359,0.2,19.0,100,0.00,,SKC,0.00,VWS V14.01,2013-05-31 18:06:00,
2013-05-31 14:08:00,80.2,80.2,30.03,SSW,204,0.0,19.0,100,0.00,,SKC,0.00,VWS V14.01,2013-05-31 18:08:00,
2013-05-31 14:09:00,80.2,80.2,30.04,North,359,0.7,19.0,100,0.00,,SKC,0.00,VWS V14.01,2013-05-31 18:09:00,
2013-05-31 14:10:00,80.2,80.2,30.04,North,359,3.0,19.0,100,0.00,,SKC,0.00,VWS V14.01,2013-05-31 18:10:00,
2013-05-31 14:11:00,80.2,80.2,30.03,South,174,7.9,19.0,100,0.00,,SKC,0.00,VWS V14.01,2013-05-31 18:11:00,
2013-05-31 14:13:00,80.2,80.2,30.03,North,359,0.2,19.0,100,0.00,,SKC,0.00,VWS V14.01,2013-05-31 18:13:00,
2013-05-31 14:15:00,80.2,80.2,30.04,South,169,7.7,19.0,100,0.00,,SKC,0.00,VWS V14.01,2013-05-31 18:15:00,
2013-05-31 14:16:00,80.2,80.2,30.03,South,173,6.5,19.0,100,0.00,,SKC,0.00,VWS V14.01,2013-05-31 18:16:00,
2013-05-31 14:18:00,80.1,80.1,30.03,SSW,194,7.6,19.0,100,0.00,,SKC,0.00,VWS V14.01,2013-05-31 18:18:00,
2013-05-31 14:20:00,80.0,80.0,30.03,SW,231,8.0,19.0,100,0.00,,SKC,0.00,VWS V14.01,2013-05-31 18:20:00,
2013-05-31 14:21:00,79.9,79.9,30.03,South,179,0.0,19.0,100,0.00,,SKC,0.00,VWS V14.01,2013-05-31 18:21:00,
2013-05-31 14:23:00,79.9,79.9,30.03,SSW,208,6.3,19.0,100,0.00,,SKC,0.00,VWS V14.01,2013-05-31 18:23:00,
2013-05-31 14:25:00,79.8,79.8,30.03,SW,231,8.6,19.0,100,0.00,,SKC,0.00,VWS V14.01,2013-05-31 18:25:00,
2013-05-31 14:26:00,79.7,79.7,30.03,SSE,165,0.2,19.0,100,0.00,,SKC,0.00,VWS V14.01,2013-05-31 18:26:00,
2013-05-31 14:28:00,79.7,79.7,30.03,SSW,195,4.7,19.0,100,0.00,,SKC,0.00,VWS V14.01,2013-05-31 18:28:00,
2013-05-31 14:30:00,79.9,79.9,30.03,SW,228,6.1,19.0,100,0.00,,SKC,0.00,VWS V14.01,2013-05-31 18:30:00,
2013-05-31 14:31:00,79.9,79.9,30.03,SSW,210,1.1,19.0,100,0.00,,SKC,0.00,VWS V14.01,2013-05-31 18:31:00,
2013-05-31 14:32:00,79.9,79.9,30.03,SSW,200,7.5,19.0,100,0.00,,SKC,0.00,VWS V14.01,2013-05-31 18:32:00,
2013-05-31 14:33:00,79.8,79.8,30.03,North,359,1.7,19.0,100,0.00,,SKC,0.00,VWS V14.01,2013-05-31 18:33:00,
2013-05-31 14:35:00,79.7,79.7,30.03,South,177,10.9,19.0,100,0.00,,SKC,0.00,VWS V14.01,2013-05-31 18:35:00,
2013-05-31 14:36:00,79.8,79.8,30.03,SSW,202,0.0,19.0,100,0.00,,SKC,0.00,VWS V14.01,2013-05-31 18:36:00,
2013-05-31 14:37:00,79.5,79.5,30.02,North,359,0.4,19.0,100,0.00,,SKC,0.00,VWS V14.01,2013-05-31 18:37:00,
2013-05-31 14:38:00,79.3,79.3,30.02,SSW,211,1.5,19.0,100,0.00,,SKC,0.00,VWS V14.01,2013-05-31 18:38:00,
2013-05-31 14:40:00,79.2,79.2,30.02,SW,224,9.4,19.0,100,0.00,,SKC,0.00,VWS V14.01,2013-05-31 18:40:00,
2013-05-31 14:41:00,79.1,79.1,30.02,North,359,9.6,19.0,100,0.00,,SKC,0.00,VWS V14.01,2013-05-31 18:41:00,
2013-05-31 14:43:00,79.1,79.1,30.02,North,359,0.4,19.0,100,0.00,,SKC,0.00,VWS V14.01,2013-05-31 18:43:00,
2013-05-31 14:45:00,79.1,79.1,30.03,South,190,12.9,19.0,100,0.00,,SKC,0.00,VWS V14.01,2013-05-31 18:45:00,
2013-05-31 14:46:00,79.2,79.2,30.03,SSW,198,9.5,19.0,100,0.00,,SKC,0.00,VWS V14.01,2013-05-31 18:46:00,
2013-05-31 14:48:00,79.0,79.0,30.03,South,187,6.2,19.0,100,0.00,,SKC,0.00,VWS V14.01,2013-05-31 18:48:00,
2013-05-31 14:51:00,79.0,79.0,30.02,SSW,204,0.5,19.0,100,0.00,,SKC,0.00,VWS V14.01,2013-05-31 18:51:00,
2013-05-31 14:53:00,79.1,79.1,30.02,SSW,198,7.9,19.0,100,0.00,,SKC,0.00,VWS V14.01,2013-05-31 18:53:00,
2013-05-31 14:54:00,79.1,79.1,30.03,SSW,205,0.9,19.0,100,0.00,,SKC,0.00,VWS V14.01,2013-05-31 18:54:00,
2013-05-31 14:56:00,79.3,79.3,30.03,South,187,0.0,19.0,100,0.00,,SKC,0.00,VWS V14.01,2013-05-31 18:56:00,
2013-05-31 14:57:00,79.3,79.3,30.03,SSW,210,1.1,19.0,100,0.00,,SKC,0.00,VWS V14.01,2013-05-31 18:57:00,
2013-05-31 14:59:00,79.4,79.4,30.03,South,169,9.1,19.0,100,0.00,,SKC,0.00,VWS V14.01,2013-05-31 18:59:00,
2013-05-31 15:01:00,79.8,79.8,30.03,North,359,0.0,19.0,100,0.00,,SKC,0.00,VWS V14.01,2013-05-31 19:01:00,
2013-05-31 15:02:00,79.8,79.8,30.03,North,359,0.4,19.0,100,0.00,,SKC,0.00,VWS V14.01,2013-05-31 19:02:00,
2013-05-31 15:04:00,79.8,79.8,30.03,South,179,3.2,19.0,100,0.00,,SKC,0.00,VWS V14.01,2013-05-31 19:04:00,
2013-05-31 15:06:00,79.8,79.8,30.02,SE,139,10.3,19.0,100,0.00,,SKC,0.00,VWS V14.01,2013-05-31 19:06:00,
2013-05-31 15:07:00,79.8,79.8,30.02,SSW,197,8.4,19.0,100,0.00,,SKC,0.00,VWS V14.01,2013-05-31 19:07:00,
2013-05-31 15:09:00,79.7,79.7,30.03,North,359,1.1,19.0,100,0.00,,SKC,0.00,VWS V14.01,2013-05-31 19:09:00,
2013-05-31 15:11:00,79.7,79.7,30.03,North,359,8.0,19.0,100,0.00,,SKC,0.00,VWS V14.01,2013-05-31 19:11:00,
2013-05-31 15:12:00,79.8,79.8,30.03,SSW,200,10.1,19.0,100,0.00,,SKC,0.00,VWS V14.01,2013-05-31 19:12:00,
2013-05-31 15:14:00,79.9,79.9,30.02,South,180,5.8,19.0,100,0.00,,SKC,0.00,VWS V14.01,2013-05-31 19:14:00,
2013-05-31 15:16:00,80.0,80.0,30.02,SSW,211,3.8,19.0,100,0.00,,SKC,0.00,VWS V14.01,2013-05-31 19:16:00,
2013-05-31 15:17:00,80.0,80.0,30.02,SW,218,3.1,19.0,100,0.00,,SKC,0.00,VWS V14.01,2013-05-31 19:17:00,
2013-05-31 15:19:00,80.0,80.0,30.02,North,359,2.2,19.0,100,0.00,,SKC,0.00,VWS V14.01,2013-05-31 19:19:00,
2013-05-31 15:20:00,79.8,79.8,30.02,North,359,0.0,19.0,100,0.00,,SKC,0.00,VWS V14.01,2013-05-31 19:20:00,
2013-05-31 15:22:00,79.5,79.5,30.02,North,359,0.4,19.0,100,0.00,,SKC,0.00,VWS V14.01,2013-05-31 19:22:00,
2013-05-31 15:25:00,79.3,79.3,30.02,North,359,3.4,19.0,100,0.00,,SKC,0.00,VWS V14.01,2013-05-31 19:25:00,
2013-05-31 15:27:00,79.2,79.2,30.02,SSW,207,8.6,19.0,100,0.00,,SKC,0.00,VWS V14.01,2013-05-31 19:27:00,
2013-05-31 15:30:00,79.5,79.5,30.02,SSE,163,3.2,19.0,100,0.00,,SKC,0.00,VWS V14.01,2013-05-31 19:30:00,
2013-05-31 15:32:00,79.5,79.5,30.02,NNW,340,9.8,19.0,100,0.00,,SKC,0.00,VWS V14.01,2013-05-31 19:32:00,
2013-05-31 15:35:00,79.8,79.8,30.02,South,174,8.4,19.0,100,0.00,,SKC,0.00,VWS V14.01,2013-05-31 19:35:00,
2013-05-31 15:37:00,79.9,79.9,30.02,South,187,5.4,19.0,100,0.00,,SKC,0.00,VWS V14.01,2013-05-31 19:37:00,
2013-05-31 15:40:00,80.1,80.1,30.02,South,188,9.4,19.0,100,0.00,,SKC,0.00,VWS V14.01,2013-05-31 19:40:00,
2013-05-31 15:41:00,80.1,80.1,30.02,SW,225,5.8,19.0,100,0.00,,SKC,0.00,VWS V14.01,2013-05-31 19:41:00,
2013-05-31 15:42:00,80.1,80.1,30.02,South,184,4.2,19.0,100,0.00,,SKC,0.00,VWS V14.01,2013-05-31 19:42:00,
2013-05-31 15:46:00,80.3,80.3,30.02,South,183,6.0,19.0,100,0.00,,SKC,0.00,VWS V14.01,2013-05-31 19:46:00,
2013-05-31 15:47:00,80.4,80.4,30.02,South,180,0.4,19.0,100,0.00,,SKC,0.00,VWS V14.01,2013-05-31 19:47:00,
2013-05-31 15:51:00,80.5,80.5,30.02,South,186,0.2,19.0,100,0.00,,SKC,0.00,VWS V14.01,2013-05-31 19:51:00,
2013-05-31 15:52:00,80.4,80.4,30.02,SSE,160,6.9,19.0,100,0.00,,SKC,0.00,VWS V14.01,2013-05-31 19:52:00,
2013-05-31 15:56:00,80.4,80.4,30.02,South,187,0.0,19.0,100,0.00,,SKC,0.00,VWS V14.01,2013-05-31 19:56:00,
2013-05-31 15:57:00,80.4,80.4,30.02,North,359,1.1,19.0,100,0.00,,SKC,0.00,VWS V14.01,2013-05-31 19:57:00,
2013-05-31 15:58:00,80.3,80.3,30.02,SW,233,2.5,19.0,100,0.00,,SKC,0.00,VWS V14.01,2013-05-31 19:58:00,
2013-05-31 16:01:00,80.4,80.4,30.02,North,359,2.9,19.0,100,0.00,,SKC,0.00,VWS V14.01,2013-05-31 20:01:00,
2013-05-31 16:02:00,80.4,80.4,30.02,North,359,8.0,19.0,100,0.00,,SKC,0.00,VWS V14.01,2013-05-31 20:02:00,
2013-05-31 16:03:00,80.3,80.3,30.02,SSW,207,5.3,19.0,100,0.00,,SKC,0.00,VWS V14.01,2013-05-31 20:03:00,
2013-05-31 16:06:00,80.5,80.5,30.02,South,174,0.2,19.0,100,0.00,,SKC,0.00,VWS V14.01,2013-05-31 20:06:00,
2013-05-31 16:07:00,80.5,80.5,30.02,SSW,205,0.0,19.0,100,0.00,,SKC,0.00,VWS V14.01,2013-05-31 20:07:00,
2013-05-31 16:08:00,80.5,80.5,30.02,SW,228,0.9,19.0,100,0.00,,SKC,0.00,VWS V14.01,2013-05-31 20:08:00,
2013-05-31 16:11:00,80.3,80.3,30.02,South,183,6.3,19.0,100,0.00,,SKC,0.00,VWS V14.01,2013-05-31 20:11:00,
2013-05-31 16:12:00,80.3,80.3,30.02,South,187,8.6,19.0,100,0.00,,SKC,0.00,VWS V14.01,2013-05-31 20:12:00,
2013-05-31 16:13:00,80.2,80.2,30.02,SSW,205,8.0,19.0,100,0.00,,SKC,0.00,VWS V14.01,2013-05-31 20:13:00,
2013-05-31 16:16:00,80.1,80.1,30.01,North,359,9.7,19.0,100,0.00,,SKC,0.00,VWS V14.01,2013-05-31 20:16:00,
2013-05-31 16:17:00,80.1,80.1,30.01,North,359,4.3,19.0,100,0.00,,SKC,0.00,VWS V14.01,2013-05-31 20:17:00,
2013-05-31 16:18:00,80.1,80.1,30.01,North,359,0.5,19.0,100,0.00,,SKC,0.00,VWS V14.01,2013-05-31 20:18:00,
2013-05-31 16:22:00,80.2,80.2,30.01,SSE,167,9.6,19.1,100,0.00,,SKC,0.00,VWS V14.01,2013-05-31 20:22:00,
2013-05-31 16:23:00,80.2,80.2,30.01,South,181,6.8,19.1,100,0.00,,SKC,0.00,VWS V14.01,2013-05-31 20:23:00,
2013-05-31 16:27:00,80.3,80.3,30.01,South,188,2.0,19.1,100,0.00,,SKC,0.00,VWS V14.01,2013-05-31 20:27:00,
2013-05-31 16:28:00,80.3,80.3,30.01,North,359,2.9,19.1,100,0.00,,SKC,0.00,VWS V14.01,2013-05-31 20:28:00,
2013-05-31 16:29:00,80.3,80.3,30.01,North,359,0.3,19.1,100,0.00,,SKC,0.00,VWS V14.01,2013-05-31 20:29:00,
2013-05-31 16:32:00,80.3,80.3,30.01,North,359,1.5,19.1,100,0.00,,SKC,0.00,VWS V14.01,2013-05-31 20:32:00,
2013-05-31 16:33:00,80.2,80.2,30.01,South,169,12.9,19.1,100,0.00,,SKC,0.00,VWS V14.01,2013-05-31 20:33:00,
2013-05-31 16:34:00,80.3,80.3,30.01,South,169,12.9,19.1,100,0.00,,SKC,0.00,VWS V14.01,2013-05-31 20:34:00,
2013-05-31 16:37:00,80.1,80.1,30.01,SW,222,4.3,19.1,100,0.00,,SKC,0.00,VWS V14.01,2013-05-31 20:37:00,
2013-05-31 16:38:00,80.1,80.1,30.01,North,359,6.7,19.1,100,0.00,,SKC,0.00,VWS V14.01,2013-05-31 20:38:00,
2013-05-31 16:39:00,80.1,80.1,30.01,SSW,211,8.1,19.1,100,0.00,,SKC,0.00,VWS V14.01,2013-05-31 20:39:00,
2013-05-31 16:42:00,79.9,79.9,30.01,South,186,8.6,19.1,100,0.00,,SKC,0.00,VWS V14.01,2013-05-31 20:42:00,
2013-05-31 16:43:00,79.8,79.9,30.01,South,190,9.7,19.1,100,0.00,,SKC,0.00,VWS V14.01,2013-05-31 20:43:00,
2013-05-31 16:44:00,79.8,79.8,30.01,SW,215,6.5,19.1,100,0.00,,SKC,0.00,VWS V14.01,2013-05-31 20:44:00,
2013-05-31 16:47:00,79.5,79.5,30.00,South,188,0.0,19.1,100,0.00,,SKC,0.00,VWS V14.01,2013-05-31 20:47:00,
2013-05-31 16:48:00,79.7,79.7,30.00,North,359,0.0,19.1,100,0.00,,SKC,0.00,VWS V14.01,2013-05-31 20:48:00,
2013-05-31 16:49:00,79.7,79.7,30.00,North,359,3.1,19.1,100,0.00,,SKC,0.00,VWS V14.01,2013-05-31 20:49:00,
2013-05-31 16:53:00,79.9,79.9,30.00,SSW,202,5.2,19.1,100,0.00,,SKC,0.00,VWS V14.01,2013-05-31 20:53:00,
2013-05-31 16:54:00,79.8,79.8,30.00,South,181,13.7,19.1,100,0.00,,SKC,0.00,VWS V14.01,2013-05-31 20:54:00,
2013-05-31 16:58:00,79.4,79.4,30.00,South,184,5.8,19.1,100,0.00,,SKC,0.00,VWS V14.01,2013-05-31 20:58:00,
2013-05-31 16:59:00,79.4,79.4,30.00,SW,222,6.3,19.1,100,0.00,,SKC,0.00,VWS V14.01,2013-05-31 20:59:00,
2013-05-31 17:03:00,79.3,79.3,30.00,SSW,194,6.7,19.1,100,0.00,,SKC,0.00,VWS V14.01,2013-05-31 21:03:00,
2013-05-31 17:04:00,79.3,79.3,30.00,SSE,167,6.0,19.1,100,0.00,,SKC,0.00,VWS V14.01,2013-05-31 21:04:00,
2013-05-31 17:08:00,79.3,79.4,30.00,SSE,160,7.3,19.1,100,0.00,,SKC,0.00,VWS V14.01,2013-05-31 21:08:00,
2013-05-31 17:09:00,79.4,79.4,30.00,South,184,7.2,19.1,100,0.00,,SKC,0.00,VWS V14.01,2013-05-31 21:09:00,
2013-05-31 17:10:00,79.4,79.4,30.01,South,180,6.7,19.1,100,0.00,,SKC,0.00,VWS V14.01,2013-05-31 21:10:00,
2013-05-31 17:14:00,79.4,79.4,30.00,SW,226,4.1,19.1,100,0.00,,SKC,0.00,VWS V14.01,2013-05-31 21:14:00,
2013-05-31 17:15:00,79.4,79.4,30.01,South,180,1.2,19.1,100,0.00,,SKC,0.00,VWS V14.01,2013-05-31 21:15:00,
2013-05-31 17:19:00,79.8,79.8,30.01,SSW,205,3.7,19.1,100,0.00,,SKC,0.00,VWS V14.01,2013-05-31 21:19:00,
2013-05-31 17:20:00,79.7,79.7,30.01,SSW,205,0.0,19.1,100,0.00,,SKC,0.00,VWS V14.01,2013-05-31 21:20:00,
2013-05-31 17:24:00,79.7,79.7,30.00,South,187,4.6,19.1,100,0.00,,SKC,0.00,VWS V14.01,2013-05-31 21:24:00,
2013-05-31 17:25:00,79.5,79.5,30.00,North,359,0.0,19.1,100,0.00,,SKC,0.00,VWS V14.01,2013-05-31 21:25:00,
2013-05-31 17:29:00,79.4,79.4,30.00,South,191,4.5,19.1,100,0.00,,SKC,0.00,VWS V14.01,2013-05-31 21:29:00,
2013-05-31 17:30:00,79.4,79.4,30.00,SW,226,4.6,19.1,100,0.00,,SKC,0.00,VWS V14.01,2013-05-31 21:30:00,
2013-05-31 17:34:00,79.3,79.3,30.00,SSE,165,9.4,19.1,100,0.00,,SKC,0.00,VWS V14.01,2013-05-31 21:34:00,
2013-05-31 17:35:00,79.2,79.2,30.00,SSW,202,0.3,19.1,100,0.00,,SKC,0.00,VWS V14.01,2013-05-31 21:35:00,
2013-05-31 17:39:00,79.2,79.2,30.00,South,188,4.5,19.1,100,0.00,,SKC,0.00,VWS V14.01,2013-05-31 21:39:00,
2013-05-31 17:40:00,79.2,79.2,30.00,SSW,197,0.0,19.1,100,0.00,,SKC,0.00,VWS V14.01,2013-05-31 21:40:00,
2013-05-31 17:44:00,79.0,79.0,30.00,South,188,5.2,19.1,100,0.00,,SKC,0.00,VWS V14.01,2013-05-31 21:44:00,
2013-05-31 17:45:00,79.0,79.0,30.00,SW,231,3.7,19.1,100,0.00,,SKC,0.00,VWS V14.01,2013-05-31 21:45:00,
2013-05-31 17:46:00,79.0,79.0,30.00,South,172,5.5,19.1,100,0.00,,SKC,0.00,VWS V14.01,2013-05-31 21:46:00,
2013-05-31 17:49:00,78.9,78.9,30.00,South,172,0.4,19.1,100,0.00,,SKC,0.00,VWS V14.01,2013-05-31 21:49:00,
2013-05-31 17:50:00,78.8,78.8,30.00,South,181,11.9,19.1,100,0.00,,SKC,0.00,VWS V14.01,2013-05-31 21:50:00,
2013-05-31 17:51:00,78.8,78.8,30.00,SSE,159,0.2,19.1,100,0.00,,SKC,0.00,VWS V14.01,2013-05-31 21:51:00,
2013-05-31 17:54:00,78.8,78.8,30.00,North,359,0.0,19.1,100,0.00,,SKC,0.00,VWS V14.01,2013-05-31 21:54:00,
2013-05-31 17:55:00,78.9,78.9,30.00,North,359,1.7,19.1,100,0.00,,SKC,0.00,VWS V14.01,2013-05-31 21:55:00,
2013-05-31 17:56:00,78.8,78.8,30.00,North,359,4.2,19.1,100,0.00,,SKC,0.00,VWS V14.01,2013-05-31 21:56:00,
2013-05-31 17:59:00,78.9,78.9,30.00,SW,225,9.0,19.1,100,0.00,,SKC,0.00,VWS V14.01,2013-05-31 21:59:00,
2013-05-31 18:00:00,78.9,78.9,30.00,South,188,0.0,19.1,100,0.00,,SKC,0.00,VWS V14.01,2013-05-31 22:00:00,
2013-05-31 18:01:00,78.9,78.9,30.00,North,359,0.3,19.1,100,0.00,,SKC,0.00,VWS V14.01,2013-05-31 22:01:00,
2013-05-31 18:05:00,78.5,78.5,30.00,South,190,9.7,19.1,100,0.00,,SKC,0.00,VWS V14.01,2013-05-31 22:05:00,
2013-05-31 18:06:00,78.4,78.4,30.00,South,177,8.1,19.1,100,0.00,,SKC,0.00,VWS V14.01,2013-05-31 22:06:00,
2013-05-31 18:07:00,78.5,78.5,30.00,South,190,0.2,19.1,100,0.00,,SKC,0.00,VWS V14.01,2013-05-31 22:07:00,
2013-05-31 18:10:00,78.5,78.5,30.00,North,359,13.9,19.1,100,0.00,,SKC,0.00,VWS V14.01,2013-05-31 22:10:00,
2013-05-31 18:11:00,78.7,78.7,30.00,South,184,10.5,19.1,100,0.00,,SKC,0.00,VWS V14.01,2013-05-31 22:11:00,
2013-05-31 18:12:00,78.7,78.7,30.00,SSW,201,0.0,19.1,100,0.00,,SKC,0.00,VWS V14.01,2013-05-31 22:12:00,
2013-05-31 18:15:00,78.7,78.7,30.00,SSW,204,12.1,19.1,100,0.00,,SKC,0.00,VWS V14.01,2013-05-31 22:15:00,
2013-05-31 18:16:00,78.4,78.4,30.00,North,359,1.8,19.1,100,0.00,,SKC,0.00,VWS V14.01,2013-05-31 22:16:00,
2013-05-31 18:17:00,78.4,78.4,30.00,North,359,0.4,19.1,100,0.00,,SKC,0.00,VWS V14.01,2013-05-31 22:17:00,
2013-05-31 18:20:00,78.3,78.3,30.00,SSE,166,8.3,19.1,100,0.00,,SKC,0.00,VWS V14.01,2013-05-31 22:20:00,
2013-05-31 18:22:00,78.3,78.3,30.00,SSW,200,8.5,19.1,100,0.00,,SKC,0.00,VWS V14.01,2013-05-31 22:22:00,
2013-05-31 18:25:00,78.3,78.3,30.00,South,188,18.6,19.1,100,0.00,,SKC,0.00,VWS V14.01,2013-05-31 22:25:00,
2013-05-31 18:27:00,78.2,78.2,30.00,SSE,148,11.6,22.7,100,0.00,,SKC,0.00,VWS V14.01,2013-05-31 22:27:00,
2013-05-31 18:30:00,78.3,78.3,30.00,WSW,249,7.5,22.7,100,0.00,,SKC,0.00,VWS V14.01,2013-05-31 22:30:00,
2013-05-31 18:32:00,78.3,78.3,30.00,South,183,10.4,22.7,100,0.00,,SKC,0.00,VWS V14.01,2013-05-31 22:32:00,
2013-05-31 18:36:00,78.2,78.2,30.00,SSW,197,9.3,22.7,100,0.00,,SKC,0.00,VWS V14.01,2013-05-31 22:36:00,
2013-05-31 18:37:00,78.3,78.3,30.00,North,359,3.7,22.7,100,0.00,,SKC,0.00,VWS V14.01,2013-05-31 22:37:00,
2013-05-31 18:41:00,78.2,78.2,30.00,SSE,153,2.4,22.7,100,0.00,,SKC,0.00,VWS V14.01,2013-05-31 22:41:00,
2013-05-31 18:42:00,78.2,78.2,30.00,South,187,4.3,22.7,100,0.00,,SKC,0.00,VWS V14.01,2013-05-31 22:42:00,
2013-05-31 18:46:00,78.2,78.2,30.00,South,170,10.4,22.7,100,0.00,,SKC,0.00,VWS V14.01,2013-05-31 22:46:00,
2013-05-31 18:47:00,78.2,78.1,30.00,South,179,12.1,22.7,100,0.00,,SKC,0.00,VWS V14.01,2013-05-31 22:47:00,
2013-05-31 18:51:00,78.2,78.2,30.00,South,187,1.9,22.7,100,0.00,,SKC,0.00,VWS V14.01,2013-05-31 22:51:00,
2013-05-31 18:52:00,78.1,78.1,30.00,SE,141,12.7,22.7,100,0.00,,SKC,0.00,VWS V14.01,2013-05-31 22:52:00,
2013-05-31 18:56:00,78.0,78.0,30.00,North,359,11.9,22.7,100,0.00,,SKC,0.00,VWS V14.01,2013-05-31 22:56:00,
2013-05-31 18:57:00,78.0,78.0,30.00,South,180,8.5,22.7,100,0.00,,SKC,0.00,VWS V14.01,2013-05-31 22:57:00,
2013-05-31 18:58:00,78.0,78.0,30.00,North,359,3.0,22.7,100,0.00,,SKC,0.00,VWS V14.01,2013-05-31 22:58:00,
2013-05-31 19:01:00,78.0,78.0,30.00,South,170,5.9,22.7,100,0.00,,SKC,0.00,VWS V14.01,2013-05-31 23:01:00,
2013-05-31 19:02:00,77.9,77.9,30.00,North,359,17.6,22.7,100,0.00,,SKC,0.00,VWS V14.01,2013-05-31 23:02:00,
2013-05-31 19:03:00,77.9,77.9,30.00,SSE,160,10.1,22.7,100,0.00,,SKC,0.00,VWS V14.01,2013-05-31 23:03:00,
2013-05-31 19:06:00,77.9,77.9,30.00,SSW,212,7.1,22.7,100,0.00,,SKC,0.00,VWS V14.01,2013-05-31 23:06:00,
2013-05-31 19:07:00,77.9,77.9,30.00,North,359,10.1,22.7,100,0.00,,SKC,0.00,VWS V14.01,2013-05-31 23:07:00,
2013-05-31 19:08:00,77.9,77.9,30.00,North,359,6.8,22.7,100,0.00,,SKC,0.00,VWS V14.01,2013-05-31 23:08:00,
2013-05-31 19:11:00,77.9,77.9,30.00,South,180,13.3,22.7,100,0.00,,SKC,0.00,VWS V14.01,2013-05-31 23:11:00,
2013-05-31 19:12:00,77.9,77.9,30.00,South,170,7.9,22.7,100,0.00,,SKC,0.00,VWS V14.01,2013-05-31 23:12:00,
2013-05-31 19:13:00,77.9,77.9,30.00,SSE,166,10.7,22.7,100,0.00,,SKC,0.00,VWS V14.01,2013-05-31 23:13:00,
2013-05-31 19:16:00,77.9,77.9,30.00,South,170,10.4,22.7,100,0.00,,SKC,0.00,VWS V14.01,2013-05-31 23:16:00,
2013-05-31 19:17:00,77.8,77.8,30.00,SSE,165,1.9,22.7,100,0.00,,SKC,0.00,VWS V14.01,2013-05-31 23:17:00,
2013-05-31 19:18:00,77.8,77.8,30.00,South,181,12.0,22.7,100,0.00,,SKC,0.00,VWS V14.01,2013-05-31 23:18:00,
2013-05-31 19:21:00,77.9,77.9,30.00,SSW,211,10.4,22.7,100,0.00,,SKC,0.00,VWS V14.01,2013-05-31 23:21:00,
2013-05-31 19:22:00,77.8,77.8,30.00,SSW,202,8.5,22.7,100,0.00,,SKC,0.00,VWS V14.01,2013-05-31 23:22:00,
2013-05-31 19:23:00,77.8,77.8,30.00,South,179,0.4,22.7,100,0.00,,SKC,0.00,VWS V14.01,2013-05-31 23:23:00,
2013-05-31 19:26:00,77.7,77.7,30.00,South,187,10.7,22.7,100,0.00,,SKC,0.00,VWS V14.01,2013-05-31 23:26:00,
2013-05-31 19:28:00,77.8,77.8,30.00,South,190,13.8,22.7,100,0.00,,SKC,0.00,VWS V14.01,2013-05-31 23:28:00,
2013-05-31 19:29:00,77.7,77.7,30.00,SSE,166,10.5,29.3,100,0.00,,SKC,0.00,VWS V14.01,2013-05-31 23:29:00,
2013-05-31 19:32:00,77.7,77.7,30.00,SW,226,7.8,29.3,100,0.00,,SKC,0.00,VWS V14.01,2013-05-31 23:32:00,
2013-05-31 19:33:00,77.5,77.5,29.99,North,359,13.1,29.3,100,0.00,,SKC,0.00,VWS V14.01,2013-05-31 23:33:00,
2013-05-31 19:34:00,77.5,77.5,29.99,SSW,194,8.0,29.3,100,0.00,,SKC,0.00,VWS V14.01,2013-05-31 23:34:00,
2013-05-31 19:37:00,77.7,77.7,29.99,North,359,3.4,29.3,100,0.00,,SKC,0.00,VWS V14.01,2013-05-31 23:37:00,
2013-05-31 19:38:00,77.5,77.5,30.00,SSE,165,1.9,29.3,100,0.00,,SKC,0.00,VWS V14.01,2013-05-31 23:38:00,
2013-05-31 19:39:00,77.4,77.4,30.00,South,191,8.0,29.3,100,0.00,,SKC,0.00,VWS V14.01,2013-05-31 23:39:00,
2013-05-31 19:42:00,77.4,77.4,30.00,North,359,0.2,29.6,100,0.00,,SKC,0.00,VWS V14.01,2013-05-31 23:42:00,
2013-05-31 19:43:00,77.4,77.4,30.00,South,186,9.6,29.6,100,0.00,,SKC,0.00,VWS V14.01,2013-05-31 23:43:00,
2013-05-31 19:44:00,77.4,77.4,30.00,North,359,4.8,29.6,100,0.00,,SKC,0.00,VWS V14.01,2013-05-31 23:44:00,
2013-05-31 19:47:00,77.4,77.4,30.00,SSW,195,4.3,29.6,100,0.00,,SKC,0.00,VWS V14.01,2013-05-31 23:47:00,
2013-05-31 19:48:00,77.4,77.4,30.00,SSW,194,2.7,29.6,100,0.00,,SKC,0.00,VWS V14.01,2013-05-31 23:48:00,
2013-05-31 19:49:00,77.5,77.5,30.00,South,173,13.6,29.6,100,0.00,,SKC,0.00,VWS V14.01,2013-05-31 23:49:00,
2013-05-31 19:50:00,77.4,77.4,30.00,South,187,13.2,29.6,100,0.00,,SKC,0.00,VWS V14.01,2013-05-31 23:50:00,
2013-05-31 19:52:00,77.4,77.4,30.00,South,170,9.2,29.6,100,0.00,,SKC,0.00,VWS V14.01,2013-05-31 23:52:00,
2013-05-31 19:53:00,77.4,77.4,30.00,South,191,14.0,29.6,100,0.00,,SKC,0.00,VWS V14.01,2013-05-31 23:53:00,
2013-05-31 19:54:00,77.3,77.3,30.00,North,359,0.7,29.6,100,0.00,,SKC,0.00,VWS V14.01,2013-05-31 23:54:00,
2013-05-31 19:55:00,77.3,77.3,30.00,SSW,204,0.7,29.6,100,0.00,,SKC,0.00,VWS V14.01,2013-05-31 23:55:00,
2013-05-31 19:57:00,77.4,77.4,30.00,SSE,167,5.0,29.6,100,0.00,,SKC,0.00,VWS V14.01,2013-05-31 23:57:00,
2013-05-31 19:58:00,77.4,77.4,30.00,North,359,12.9,29.6,100,0.00,,SKC,0.00,VWS V14.01,2013-05-31 23:58:00,
2013-05-31 19:59:00,77.3,77.3,30.00,North,359,11.4,29.6,100,0.00,,SKC,0.00,VWS V14.01,2013-05-31 23:59:00,
2013-05-31 20:00:00,77.3,77.3,30.00,North,359,11.6,29.6,100,0.00,,SKC,0.00,VWS V14.01,2013-06-01 00:00:00,
2013-05-31 20:03:00,77.2,77.2,30.00,North,359,7.8,29.6,100,0.00,,SKC,0.00,VWS V14.01,2013-06-01 00:03:00,
2013-05-31 20:04:00,77.1,77.2,30.00,SSW,201,7.6,29.6,100,0.00,,SKC,0.00,VWS V14.01,2013-06-01 00:04:00,
2013-05-31 20:05:00,77.1,77.1,30.00,SSE,166,11.2,29.6,100,0.00,,SKC,0.00,VWS V14.01,2013-06-01 00:05:00,
2013-05-31 20:08:00,77.1,77.1,30.00,SSW,205,4.0,29.6,100,0.00,,SKC,0.00,VWS V14.01,2013-06-01 00:08:00,
2013-05-31 20:09:00,77.1,77.1,30.00,South,177,9.8,29.6,100,0.00,,SKC,0.00,VWS V14.01,2013-06-01 00:09:00,
2013-05-31 20:10:00,77.1,77.1,30.00,South,177,5.5,29.6,100,0.00,,SKC,0.00,VWS V14.01,2013-06-01 00:10:00,
2013-05-31 20:13:00,77.0,77.0,30.00,SW,222,3.7,29.6,100,0.00,,SKC,0.00,VWS V14.01,2013-06-01 00:13:00,
2013-05-31 20:14:00,77.0,77.0,30.00,SSW,200,9.7,29.6,100,0.00,,SKC,0.00,VWS V14.01,2013-06-01 00:14:00,
2013-05-31 20:15:00,77.1,77.1,29.99,SSW,195,14.5,29.6,100,0.00,,SKC,0.00,VWS V14.01,2013-06-01 00:15:00,
2013-05-31 20:16:00,77.0,77.1,29.99,North,359,2.6,29.6,100,0.00,,SKC,0.00,VWS V14.01,2013-06-01 00:16:00,
2013-05-31 20:18:00,77.0,77.0,29.99,South,183,8.9,29.6,100,0.00,,SKC,0.00,VWS V14.01,2013-06-01 00:18:00,
2013-05-31 20:19:00,77.1,77.1,29.99,South,186,6.9,29.6,100,0.00,,SKC,0.00,VWS V14.01,2013-06-01 00:19:00,
2013-05-31 20:20:00,77.1,77.1,29.99,South,180,8.6,29.6,100,0.00,,SKC,0.00,VWS V14.01,2013-06-01 00:20:00,
2013-05-31 20:21:00,77.1,77.1,30.00,South,176,11.4,29.6,100,0.00,,SKC,0.00,VWS V14.01,2013-06-01 00:21:00,
2013-05-31 20:23:00,77.0,77.0,29.99,North,359,0.0,29.6,100,0.00,,SKC,0.00,VWS V14.01,2013-06-01 00:23:00,
2013-05-31 20:24:00,77.1,77.0,29.99,SSW,198,8.9,29.6,100,0.00,,SKC,0.00,VWS V14.01,2013-06-01 00:24:00,
2013-05-31 20:25:00,77.0,77.0,29.99,South,172,9.5,29.6,100,0.00,,SKC,0.00,VWS V14.01,2013-06-01 00:25:00,
2013-05-31 20:26:00,77.1,77.1,29.99,SSE,158,8.1,29.6,100,0.00,,SKC,0.00,VWS V14.01,2013-06-01 00:26:00,
2013-05-31 20:29:00,77.0,77.0,30.00,South,170,8.5,29.6,100,0.00,,SKC,0.00,VWS V14.01,2013-06-01 00:29:00,
2013-05-31 20:30:00,77.1,77.1,30.00,SSE,160,9.4,29.6,100,0.00,,SKC,0.00,VWS V14.01,2013-06-01 00:30:00,
2013-05-31 20:31:00,77.1,77.1,30.00,SSW,194,8.3,29.6,100,0.00,,SKC,0.00,VWS V14.01,2013-06-01 00:31:00,
2013-05-31 20:32:00,77.0,77.0,30.00,South,169,7.0,29.6,100,0.00,,SKC,0.00,VWS V14.01,2013-06-01 00:32:00,
2013-05-31 20:34:00,77.0,77.0,30.00,SSE,156,8.6,29.6,100,0.00,,SKC,0.00,VWS V14.01,2013-06-01 00:34:00,
2013-05-31 20:35:00,77.0,77.0,30.00,SW,226,6.3,29.6,100,0.00,,SKC,0.00,VWS V14.01,2013-06-01 00:35:00,
2013-05-31 20:36:00,77.0,77.0,30.00,SSW,202,4.1,29.6,100,0.00,,SKC,0.00,VWS V14.01,2013-06-01 00:36:00,
2013-05-31 20:37:00,76.9,76.9,30.00,SSE,158,8.0,29.6,100,0.00,,SKC,0.00,VWS V14.01,2013-06-01 00:37:00,
2013-05-31 20:39:00,76.9,76.9,30.00,SE,146,1.2,29.6,100,0.00,,SKC,0.00,VWS V14.01,2013-06-01 00:39:00,
2013-05-31 20:40:00,77.0,77.0,30.00,SW,217,9.1,29.6,100,0.00,,SKC,0.00,VWS V14.01,2013-06-01 00:40:00,
2013-05-31 20:41:00,76.9,76.9,30.00,SSW,204,6.0,29.6,100,0.00,,SKC,0.00,VWS V14.01,2013-06-01 00:41:00,
2013-05-31 20:42:00,77.0,77.0,30.00,SSW,211,10.6,29.6,100,0.00,,SKC,0.00,VWS V14.01,2013-06-01 00:42:00,
2013-05-31 20:44:00,77.0,77.0,30.00,South,173,0.0,29.6,100,0.00,,SKC,0.00,VWS V14.01,2013-06-01 00:44:00,
2013-05-31 20:45:00,77.0,77.0,30.00,North,359,1.8,29.6,100,0.00,,SKC,0.00,VWS V14.01,2013-06-01 00:45:00,
2013-05-31 20:46:00,77.0,77.0,30.00,WSW,245,6.8,29.6,100,0.00,,SKC,0.00,VWS V14.01,2013-06-01 00:46:00,
2013-05-31 20:47:00,76.9,76.9,30.00,South,184,6.6,29.6,100,0.00,,SKC,0.00,VWS V14.01,2013-06-01 00:47:00,
2013-05-31 20:49:00,76.8,76.8,30.00,South,170,6.9,29.6,100,0.00,,SKC,0.00,VWS V14.01,2013-06-01 00:49:00,
2013-05-31 20:50:00,76.9,76.8,30.00,SSE,166,6.6,29.6,100,0.00,,SKC,0.00,VWS V14.01,2013-06-01 00:50:00,
2013-05-31 20:51:00,76.9,76.9,30.00,SSW,198,6.0,29.6,100,0.00,,SKC,0.00,VWS V14.01,2013-06-01 00:51:00,
2013-05-31 20:52:00,76.9,76.9,30.00,SSW,198,3.6,29.6,100,0.00,,SKC,0.00,VWS V14.01,2013-06-01 00:52:00,
2013-05-31 20:54:00,76.9,76.9,30.00,South,181,9.7,29.6,100,0.00,,SKC,0.00,VWS V14.01,2013-06-01 00:54:00,
2013-05-31 20:55:00,76.9,76.9,30.00,North,359,7.5,29.6,100,0.00,,SKC,0.00,VWS V14.01,2013-06-01 00:55:00,
2013-05-31 20:56:00,76.9,76.9,30.00,South,190,8.2,29.6,100,0.00,,SKC,0.00,VWS V14.01,2013-06-01 00:56:00,
2013-05-31 20:57:00,76.9,76.9,30.00,South,169,6.2,29.6,100,0.00,,SKC,0.00,VWS V14.01,2013-06-01 00:57:00,
2013-05-31 20:59:00,77.0,77.0,30.00,South,187,0.0,29.6,100,0.00,,SKC,0.00,VWS V14.01,2013-06-01 00:59:00,
2013-05-31 21:00:00,76.9,76.9,30.00,SSE,166,6.5,29.6,100,0.00,,SKC,0.00,VWS V14.01,2013-06-01 01:00:00,
2013-05-31 21:02:00,77.0,77.0,30.00,North,359,0.4,29.6,100,0.00,,SKC,0.00,VWS V14.01,2013-06-01 01:02:00,
2013-05-31 21:04:00,77.0,77.0,30.00,SSE,159,4.1,29.6,100,0.00,,SKC,0.00,VWS V14.01,2013-06-01 01:04:00,
2013-05-31 21:06:00,76.9,76.9,30.00,SSW,204,1.8,29.6,100,0.00,,SKC,0.00,VWS V14.01,2013-06-01 01:06:00,
2013-05-31 21:07:00,76.9,76.9,30.00,South,177,7.5,29.6,100,0.00,,SKC,0.00,VWS V14.01,2013-06-01 01:07:00,
2013-05-31 21:09:00,76.9,76.9,30.00,South,188,3.9,29.6,100,0.00,,SKC,0.00,VWS V14.01,2013-06-01 01:09:00,
2013-05-31 21:11:00,76.9,76.9,30.00,SSW,193,6.1,29.6,100,0.00,,SKC,0.00,VWS V14.01,2013-06-01 01:11:00,
2013-05-31 21:12:00,76.9,76.9,30.00,North,359,0.0,29.6,100,0.00,,SKC,0.00,VWS V14.01,2013-06-01 01:12:00,
2013-05-31 21:14:00,76.9,76.9,30.00,South,180,11.1,29.6,100,0.00,,SKC,0.00,VWS V14.01,2013-06-01 01:14:00,
2013-05-31 21:16:00,76.8,76.8,30.00,South,177,8.9,29.6,100,0.00,,SKC,0.00,VWS V14.01,2013-06-01 01:16:00,
2013-05-31 21:17:00,76.8,76.8,30.00,SSW,201,3.9,29.6,100,0.00,,SKC,0.00,VWS V14.01,2013-06-01 01:17:00,
2013-05-31 21:19:00,76.8,76.8,30.00,SSW,200,3.8,29.6,100,0.00,,SKC,0.00,VWS V14.01,2013-06-01 01:19:00,
2013-05-31 21:21:00,76.9,76.9,30.00,South,184,3.4,29.6,100,0.00,,SKC,0.00,VWS V14.01,2013-06-01 01:21:00,
2013-05-31 21:22:00,76.9,76.9,30.00,SW,217,6.1,29.6,100,0.00,,SKC,0.00,VWS V14.01,2013-06-01 01:22:00,
2013-05-31 21:24:00,76.8,76.8,30.00,SSW,204,0.0,29.6,100,0.00,,SKC,0.00,VWS V14.01,2013-06-01 01:24:00,
2013-05-31 21:26:00,76.8,76.8,30.00,North,359,5.4,29.6,100,0.00,,SKC,0.00,VWS V14.01,2013-06-01 01:26:00,
2013-05-31 21:27:00,76.8,76.8,30.00,South,172,3.3,29.6,100,0.00,,SKC,0.00,VWS V14.01,2013-06-01 01:27:00,
2013-05-31 21:29:00,76.8,76.8,30.00,SW,232,0.0,29.6,100,0.00,,SKC,0.00,VWS V14.01,2013-06-01 01:29:00,
2013-05-31 21:31:00,76.8,76.8,30.00,North,359,5.5,29.6,100,0.00,,SKC,0.00,VWS V14.01,2013-06-01 01:31:00,
2013-05-31 21:32:00,76.7,76.8,30.00,SSW,211,8.3,29.6,100,0.00,,SKC,0.00,VWS V14.01,2013-06-01 01:32:00,
2013-05-31 21:33:00,76.8,76.8,29.99,SW,235,6.1,29.6,100,0.00,,SKC,0.00,VWS V14.01,2013-06-01 01:33:00,
2013-05-31 21:34:00,76.8,76.8,29.99,North,359,6.4,29.6,100,0.00,,SKC,0.00,VWS V14.01,2013-06-01 01:34:00,
2013-05-31 21:36:00,76.8,76.8,30.00,North,359,6.0,29.6,100,0.00,,SKC,0.00,VWS V14.01,2013-06-01 01:36:00,
2013-05-31 21:37:00,76.8,76.8,30.00,North,359,1.7,29.6,100,0.00,,SKC,0.00,VWS V14.01,2013-06-01 01:37:00,
2013-05-31 21:38:00,76.7,76.7,30.00,South,186,0.6,29.6,100,0.00,,SKC,0.00,VWS V14.01,2013-06-01 01:38:00,
2013-05-31 21:39:00,76.7,76.7,29.99,WSW,240,0.0,29.6,100,0.00,,SKC,0.00,VWS V14.01,2013-06-01 01:39:00,
2013-05-31 21:42:00,76.8,76.8,30.00,SSE,167,6.6,29.6,100,0.00,,SKC,0.00,VWS V14.01,2013-06-01 01:42:00,
2013-05-31 21:43:00,76.7,76.7,30.00,North,359,0.4,29.6,100,0.00,,SKC,0.00,VWS V14.01,2013-06-01 01:43:00,
2013-05-31 21:45:00,76.7,76.7,30.00,South,177,7.1,29.6,100,0.00,,SKC,0.00,VWS V14.01,2013-06-01 01:45:00,
2013-05-31 21:47:00,76.7,76.7,30.00,North,359,7.9,29.6,100,0.00,,SKC,0.00,VWS V14.01,2013-06-01 01:47:00,
2013-05-31 21:48:00,76.7,76.7,30.00,SW,222,0.6,29.6,100,0.00,,SKC,0.00,VWS V14.01,2013-06-01 01:48:00,
2013-05-31 21:50:00,76.7,76.7,30.00,SSW,193,1.6,29.6,100,0.00,,SKC,0.00,VWS V14.01,2013-06-01 01:50:00,
2013-05-31 21:52:00,76.8,76.8,30.00,South,188,6.6,29.6,100,0.00,,SKC,0.00,VWS V14.01,2013-06-01 01:52:00,
2013-05-31 21:54:00,76.7,76.7,30.00,SSW,211,5.1,29.6,100,0.00,,SKC,0.00,VWS V14.01,2013-06-01 01:54:00,
2013-05-31 21:55:00,76.7,76.7,30.00,South,170,5.3,29.6,100,0.00,,SKC,0.00,VWS V14.01,2013-06-01 01:55:00,
2013-05-31 21:57:00,76.7,76.7,30.00,SSW,201,5.5,29.6,100,0.00,,SKC,0.00,VWS V14.01,2013-06-01 01:57:00,
2013-05-31 21:59:00,76.7,76.7,30.00,South,188,1.6,29.6,100,0.00,,SKC,0.00,VWS V14.01,2013-06-01 01:59:00,
2013-05-31 22:00:00,76.7,76.7,30.00,SSE,163,7.5,29.6,100,0.00,,SKC,0.00,VWS V14.01,2013-06-01 02:00:00,
2013-05-31 22:02:00,76.7,76.7,30.00,SSW,193,7.5,29.6,100,0.00,,SKC,0.00,VWS V14.01,2013-06-01 02:02:00,
2013-05-31 22:04:00,76.7,76.7,30.00,South,174,10.3,29.6,100,0.00,,SKC,0.00,VWS V14.01,2013-06-01 02:04:00,
2013-05-31 22:05:00,76.6,76.7,30.00,North,359,0.4,29.6,100,0.00,,SKC,0.00,VWS V14.01,2013-06-01 02:05:00,
2013-05-31 22:07:00,76.7,76.7,30.00,SW,217,0.8,29.6,100,0.00,,SKC,0.00,VWS V14.01,2013-06-01 02:07:00,
2013-05-31 22:08:00,76.7,76.7,30.00,SW,217,0.8,29.6,100,0.00,,SKC,0.00,VWS V14.01,2013-06-01 02:08:00,
2013-05-31 22:09:00,76.7,76.7,30.00,North,359,3.1,29.6,100,0.00,,SKC,0.00,VWS V14.01,2013-06-01 02:09:00,
2013-05-31 22:10:00,76.7,76.7,30.00,South,180,6.9,29.6,100,0.00,,SKC,0.00,VWS V14.01,2013-06-01 02:10:00,
2013-05-31 22:12:00,76.8,76.8,29.99,South,190,5.8,29.6,100,0.00,,SKC,0.00,VWS V14.01,2013-06-01 02:12:00,
2013-05-31 22:13:00,76.8,76.8,29.99,South,179,7.8,29.6,100,0.00,,SKC,0.00,VWS V14.01,2013-06-01 02:13:00,
2013-05-31 22:14:00,76.7,76.7,29.99,North,359,8.0,29.6,100,0.00,,SKC,0.00,VWS V14.01,2013-06-01 02:14:00,
2013-05-31 22:15:00,76.7,76.8,29.99,South,172,3.8,29.6,100,0.00,,SKC,0.00,VWS V14.01,2013-06-01 02:15:00,
2013-05-31 22:18:00,76.7,76.7,30.00,SSE,165,4.0,29.6,100,0.00,,SKC,0.00,VWS V14.01,2013-06-01 02:18:00,
2013-05-31 22:19:00,76.7,76.7,30.00,SSW,197,7.2,29.6,100,0.00,,SKC,0.00,VWS V14.01,2013-06-01 02:19:00,
2013-05-31 22:20:00,76.7,76.7,30.00,SW,218,0.0,29.6,100,0.00,,SKC,0.00,VWS V14.01,2013-06-01 02:20:00,
2013-05-31 22:23:00,76.7,76.7,29.99,SW,214,0.0,29.6,100,0.00,,SKC,0.00,VWS V14.01,2013-06-01 02:23:00,
2013-05-31 22:24:00,76.7,76.7,29.99,SSE,155,3.4,29.6,100,0.00,,SKC,0.00,VWS V14.01,2013-06-01 02:24:00,
2013-05-31 22:25:00,76.6,76.6,30.00,North,359,7.5,29.6,100,0.00,,SKC,0.00,VWS V14.01,2013-06-01 02:25:00,
2013-05-31 22:28:00,76.8,76.8,30.00,North,359,3.7,29.6,100,0.00,,SKC,0.00,VWS V14.01,2013-06-01 02:28:00,
2013-05-31 22:29:00,76.8,76.8,30.00,SSW,211,6.1,29.6,100,0.00,,SKC,0.00,VWS V14.01,2013-06-01 02:29:00,
2013-05-31 22:30:00,76.7,76.7,30.00,North,359,0.4,29.6,100,0.00,,SKC,0.00,VWS V14.01,2013-06-01 02:30:00,
2013-05-31 22:33:00,76.7,76.7,30.00,SSW,200,3.7,29.6,100,0.00,,SKC,0.00,VWS V14.01,2013-06-01 02:33:00,
2013-05-31 22:34:00,76.7,76.7,30.00,South,174,4.9,29.6,100,0.00,,SKC,0.00,VWS V14.01,2013-06-01 02:34:00,
2013-05-31 22:36:00,76.6,76.6,30.00,SSW,198,5.5,29.6,100,0.00,,SKC,0.00,VWS V14.01,2013-06-01 02:36:00,
2013-05-31 22:38:00,76.7,76.7,30.00,SW,215,4.0,29.6,100,0.00,,SKC,0.00,VWS V14.01,2013-06-01 02:38:00,
2013-05-31 22:39:00,76.6,76.6,30.00,SSW,207,3.5,29.6,100,0.00,,SKC,0.00,VWS V14.01,2013-06-01 02:39:00,
2013-05-31 22:41:00,76.7,76.7,30.00,SSW,198,7.8,29.6,100,0.00,,SKC,0.00,VWS V14.01,2013-06-01 02:41:00,
2013-05-31 22:43:00,76.6,76.6,30.00,WSW,248,6.7,29.6,100,0.00,,SKC,0.00,VWS V14.01,2013-06-01 02:43:00,
2013-05-31 22:44:00,76.6,76.6,30.00,SSW,212,0.0,29.6,100,0.00,,SKC,0.00,VWS V14.01,2013-06-01 02:44:00,
2013-05-31 22:45:00,76.6,76.6,30.00,South,172,6.8,29.6,100,0.00,,SKC,0.00,VWS V14.01,2013-06-01 02:45:00,
2013-05-31 22:46:00,76.7,76.7,30.00,SSW,212,5.0,29.6,100,0.00,,SKC,0.00,VWS V14.01,2013-06-01 02:46:00,
2013-05-31 22:48:00,76.7,76.7,30.00,SSW,211,6.1,29.6,100,0.00,,SKC,0.00,VWS V14.01,2013-06-01 02:48:00,
2013-05-31 22:49:00,76.7,76.7,30.00,South,172,7.1,29.6,100,0.00,,SKC,0.00,VWS V14.01,2013-06-01 02:49:00,
2013-05-31 22:50:00,76.7,76.7,30.00,North,359,0.0,29.6,100,0.00,,SKC,0.00,VWS V14.01,2013-06-01 02:50:00,
2013-05-31 22:51:00,76.7,76.7,30.00,South,174,11.7,29.6,100,0.00,,SKC,0.00,VWS V14.01,2013-06-01 02:51:00,
2013-05-31 22:53:00,76.6,76.6,30.00,South,188,7.8,29.6,100,0.00,,SKC,0.00,VWS V14.01,2013-06-01 02:53:00,
2013-05-31 22:54:00,76.7,76.7,30.00,SSW,198,4.8,29.6,100,0.00,,SKC,0.00,VWS V14.01,2013-06-01 02:54:00,
2013-05-31 22:55:00,76.6,76.6,30.00,SW,232,2.7,29.6,100,0.00,,SKC,0.00,VWS V14.01,2013-06-01 02:55:00,
2013-05-31 22:56:00,76.7,76.7,30.00,South,184,5.8,29.6,100,0.00,,SKC,0.00,VWS V14.01,2013-06-01 02:56:00,
2013-05-31 22:58:00,76.7,76.7,30.00,South,180,9.6,29.6,100,0.00,,SKC,0.00,VWS V14.01,2013-06-01 02:58:00,
2013-05-31 22:59:00,76.7,76.7,30.00,SSW,204,3.5,29.6,100,0.00,,SKC,0.00,VWS V14.01,2013-06-01 02:59:00,
2013-05-31 23:00:00,76.6,76.6,30.00,South,191,0.0,29.6,100,0.00,,SKC,0.00,VWS V14.01,2013-06-01 03:00:00,
2013-05-31 23:01:00,76.7,76.6,30.00,SSW,198,2.6,29.6,100,0.00,,SKC,0.00,VWS V14.01,2013-06-01 03:01:00,
2013-05-31 23:04:00,76.7,76.7,30.00,SSW,202,9.1,29.6,100,0.00,,SKC,0.00,VWS V14.01,2013-06-01 03:04:00,
2013-05-31 23:05:00,76.6,76.6,30.00,SW,219,8.8,29.6,100,0.00,,SKC,0.00,VWS V14.01,2013-06-01 03:05:00,
2013-05-31 23:06:00,76.7,76.7,30.00,SSW,202,4.3,29.6,100,0.00,,SKC,0.00,VWS V14.01,2013-06-01 03:06:00,
2013-05-31 23:07:00,76.7,76.6,30.00,SW,235,6.4,29.6,100,0.00,,SKC,0.00,VWS V14.01,2013-06-01 03:07:00,
2013-05-31 23:08:00,76.6,76.6,30.00,South,169,6.1,29.6,100,0.00,,SKC,0.00,VWS V14.01,2013-06-01 03:08:00,
2013-05-31 23:09:00,76.8,76.8,30.00,SSW,201,4.1,29.6,100,0.00,,SKC,0.00,VWS V14.01,2013-06-01 03:09:00,
2013-05-31 23:10:00,76.7,76.7,30.00,SSW,208,0.0,29.6,100,0.00,,SKC,0.00,VWS V14.01,2013-06-01 03:10:00,
2013-05-31 23:11:00,76.7,76.7,30.00,South,180,7.9,29.6,100,0.00,,SKC,0.00,VWS V14.01,2013-06-01 03:11:00,
2013-05-31 23:14:00,76.7,76.7,30.00,SSW,208,4.0,29.6,100,0.00,,SKC,0.00,VWS V14.01,2013-06-01 03:14:00,
2013-05-31 23:15:00,76.7,76.7,30.00,South,183,8.3,29.6,100,0.00,,SKC,0.00,VWS V14.01,2013-06-01 03:15:00,
2013-05-31 23:16:00,76.7,76.8,30.00,North,359,0.2,29.6,100,0.00,,SKC,0.00,VWS V14.01,2013-06-01 03:16:00,
2013-05-31 23:19:00,76.7,76.7,30.00,SSW,204,1.2,29.6,100,0.00,,SKC,0.00,VWS V14.01,2013-06-01 03:19:00,
2013-05-31 23:20:00,76.7,76.7,30.00,SSW,193,8.0,29.6,100,0.00,,SKC,0.00,VWS V14.01,2013-06-01 03:20:00,
2013-05-31 23:21:00,76.7,76.7,30.00,SSE,163,5.6,29.6,100,0.00,,SKC,0.00,VWS V14.01,2013-06-01 03:21:00,
2013-05-31 23:24:00,76.6,76.6,30.00,SW,214,3.2,29.6,100,0.00,,SKC,0.00,VWS V14.01,2013-06-01 03:24:00,
2013-05-31 23:25:00,76.6,76.6,30.00,SW,228,2.9,29.6,100,0.00,,SKC,0.00,VWS V14.01,2013-06-01 03:25:00,
2013-05-31 23:26:00,76.6,76.6,30.00,North,359,6.7,29.6,100,0.00,,SKC,0.00,VWS V14.01,2013-06-01 03:26:00,
2013-05-31 23:29:00,76.6,76.6,30.00,South,191,9.8,29.6,100,0.00,,SKC,0.00,VWS V14.01,2013-06-01 03:29:00,
2013-05-31 23:31:00,76.6,76.6,30.00,SW,224,5.2,29.6,100,0.00,,SKC,0.00,VWS V14.01,2013-06-01 03:31:00,
2013-05-31 23:34:00,76.5,76.5,29.99,SSW,212,6.8,29.6,100,0.00,,SKC,0.00,VWS V14.01,2013-06-01 03:34:00,
2013-05-31 23:36:00,76.5,76.5,29.99,SW,217,7.6,29.6,100,0.00,,SKC,0.00,VWS V14.01,2013-06-01 03:36:00,
2013-05-31 23:37:00,76.6,76.6,29.99,North,359,2.2,29.6,100,0.00,,SKC,0.00,VWS V14.01,2013-06-01 03:37:00,
2013-05-31 23:39:00,76.5,76.5,29.99,SSW,207,10.9,29.6,100,0.00,,SKC,0.00,VWS V14.01,2013-06-01 03:39:00,
2013-05-31 23:41:00,76.5,76.5,29.99,South,190,7.3,29.6,100,0.00,,SKC,0.00,VWS V14.01,2013-06-01 03:41:00,
2013-05-31 23:42:00,76.4,76.4,29.99,South,186,8.3,29.6,100,0.00,,SKC,0.00,VWS V14.01,2013-06-01 03:42:00,
2013-05-31 23:44:00,76.4,76.4,29.99,SSW,205,9.1,29.6,100,0.00,,SKC,0.00,VWS V14.01,2013-06-01 03:44:00,
2013-05-31 23:46:00,76.5,76.5,29.99,SW,217,3.2,29.6,100,0.00,,SKC,0.00,VWS V14.01,2013-06-01 03:46:00,
2013-05-31 23:47:00,76.5,76.5,29.99,SSE,158,0.4,29.6,100,0.00,,SKC,0.00,VWS V14.01,2013-06-01 03:47:00,
2013-05-31 23:49:00,76.4,76.4,29.99,North,359,7.6,29.6,100,0.00,,SKC,0.00,VWS V14.01,2013-06-01 03:49:00,
2013-05-31 23:51:00,76.5,76.5,29.99,SSE,156,6.0,29.6,100,0.00,,SKC,0.00,VWS V14.01,2013-06-01 03:51:00,
2013-05-31 23:52:00,76.5,76.5,29.99,South,187,4.9,29.6,100,0.00,,SKC,0.00,VWS V14.01,2013-06-01 03:52:00,
2013-05-31 23:56:00,76.4,76.4,30.00,South,176,7.3,29.6,100,0.00,,SKC,0.00,VWS V14.01,2013-06-01 03:56:00,
2013-05-31 23:57:00,76.4,76.4,30.00,SSE,163,11.1,29.6,100,0.00,,SKC,0.00,VWS V14.01,2013-06-01 03:57:00,